<?xml version="1.0" encoding="UTF-8" standalone="no" ?>
<gpx xmlns="http://www.topografix.com/GPX/1/1" xmlns:xsi="http://www.w3.org/2001/XMLSchema-instance" xsi:schemaLocation="http://www.topografix.com/GPX/1/1 http://www.topografix.com/GPX/1/1/gpx.xsd" version="1.1" creator="VisuGPX - https://www.visugpx.com">
  <metadata>
    <name>RSPFY-bois de Rochefort</name>
    <desc><![CDATA[marche nordique dans le bois de Rochefort en partant du carrefour de Luynes en passant par le carrefour Fanny, le Fonds de Bullion, le carrefour des Jumelles et le point de vue sur la vallée (161m).]]></desc>
  </metadata>
  <trk>
    <name><![CDATA[2022-04-07 08:58]]></name>
    <desc><![CDATA[<p>Heure de départ: 08:58 7 avr. 2022<br/>Heure d'arrivée: 11:35 7 avr. 2022<br/>Distance: 12,1 km (02:36)<br/>Temps déplacement: 02:10<br/>Vitesse moyenne: 4,65 km/h<br/>Vitesse moyenne mouv.: 5,58 km/h<br/>Vitesse Max.: 8,06 km/h<br/>Altitude minimale: 104 m<br/>Altitude maximale: 156 m<br/>Vitesse de montée: 226,9 m/h<br/>Vitesse de descente: -226,2 m/h<br/>Gain d'altitude: 292 m<br/>Perte d'altitude: -291 m<br/>Temps de montée: 01:17<br/>Temps de descente: 01:17<br/></p><hr align="center" width="480" style="height: 2px; width: 517px"/>]]></desc>
    <trkseg>
      <trkpt lat="48.59183" lon="1.96603">
        <ele>116.6</ele>
        <time>2022-04-07T06:58:51Z</time>
      </trkpt>
      <trkpt lat="48.59188" lon="1.9659">
        <ele>116.8</ele>
        <time>2022-04-07T06:59:06Z</time>
      </trkpt>
      <trkpt lat="48.59193" lon="1.96578">
        <ele>117</ele>
        <time>2022-04-07T06:59:14Z</time>
      </trkpt>
      <trkpt lat="48.59199" lon="1.96567">
        <ele>117.3</ele>
        <time>2022-04-07T06:59:22Z</time>
      </trkpt>
      <trkpt lat="48.59206" lon="1.96557">
        <ele>117.8</ele>
        <time>2022-04-07T06:59:30Z</time>
      </trkpt>
      <trkpt lat="48.59213" lon="1.96547">
        <ele>118.4</ele>
        <time>2022-04-07T06:59:37Z</time>
      </trkpt>
      <trkpt lat="48.59221" lon="1.96537">
        <ele>118.9</ele>
        <time>2022-04-07T06:59:44Z</time>
      </trkpt>
      <trkpt lat="48.59229" lon="1.96529">
        <ele>119.5</ele>
        <time>2022-04-07T06:59:51Z</time>
      </trkpt>
      <trkpt lat="48.59238" lon="1.96522">
        <ele>120.2</ele>
        <time>2022-04-07T06:59:59Z</time>
      </trkpt>
      <trkpt lat="48.59246" lon="1.96513">
        <ele>121.1</ele>
        <time>2022-04-07T07:00:07Z</time>
      </trkpt>
      <trkpt lat="48.59253" lon="1.96504">
        <ele>122.2</ele>
        <time>2022-04-07T07:00:15Z</time>
      </trkpt>
      <trkpt lat="48.5926" lon="1.96494">
        <ele>123.1</ele>
        <time>2022-04-07T07:00:22Z</time>
      </trkpt>
      <trkpt lat="48.59268" lon="1.96487">
        <ele>124</ele>
        <time>2022-04-07T07:00:29Z</time>
      </trkpt>
      <trkpt lat="48.59276" lon="1.96479">
        <ele>124.8</ele>
        <time>2022-04-07T07:00:36Z</time>
      </trkpt>
      <trkpt lat="48.59286" lon="1.96478">
        <ele>126.1</ele>
        <time>2022-04-07T07:00:43Z</time>
      </trkpt>
      <trkpt lat="48.59295" lon="1.96479">
        <ele>127.4</ele>
        <time>2022-04-07T07:00:50Z</time>
      </trkpt>
      <trkpt lat="48.59305" lon="1.96483">
        <ele>128.6</ele>
        <time>2022-04-07T07:00:56Z</time>
      </trkpt>
      <trkpt lat="48.59312" lon="1.96493">
        <ele>128.9</ele>
        <time>2022-04-07T07:01:06Z</time>
      </trkpt>
      <trkpt lat="48.59321" lon="1.96499">
        <ele>129.6</ele>
        <time>2022-04-07T07:01:14Z</time>
      </trkpt>
      <trkpt lat="48.59328" lon="1.96507">
        <ele>130.4</ele>
        <time>2022-04-07T07:01:21Z</time>
      </trkpt>
      <trkpt lat="48.59336" lon="1.96515">
        <ele>131.2</ele>
        <time>2022-04-07T07:01:28Z</time>
      </trkpt>
      <trkpt lat="48.59345" lon="1.96522">
        <ele>131.8</ele>
        <time>2022-04-07T07:01:34Z</time>
      </trkpt>
      <trkpt lat="48.59354" lon="1.96528">
        <ele>132.5</ele>
        <time>2022-04-07T07:01:40Z</time>
      </trkpt>
      <trkpt lat="48.59363" lon="1.96534">
        <ele>133.2</ele>
        <time>2022-04-07T07:01:47Z</time>
      </trkpt>
      <trkpt lat="48.59371" lon="1.96543">
        <ele>133.9</ele>
        <time>2022-04-07T07:01:54Z</time>
      </trkpt>
      <trkpt lat="48.5938" lon="1.96549">
        <ele>134.9</ele>
        <time>2022-04-07T07:02:01Z</time>
      </trkpt>
      <trkpt lat="48.59388" lon="1.96556">
        <ele>136</ele>
        <time>2022-04-07T07:02:09Z</time>
      </trkpt>
      <trkpt lat="48.59396" lon="1.96565">
        <ele>137.3</ele>
        <time>2022-04-07T07:02:17Z</time>
      </trkpt>
      <trkpt lat="48.59405" lon="1.96571">
        <ele>138.5</ele>
        <time>2022-04-07T07:02:25Z</time>
      </trkpt>
      <trkpt lat="48.59412" lon="1.96581">
        <ele>139.6</ele>
        <time>2022-04-07T07:02:33Z</time>
      </trkpt>
      <trkpt lat="48.59419" lon="1.9659">
        <ele>140.4</ele>
        <time>2022-04-07T07:02:40Z</time>
      </trkpt>
      <trkpt lat="48.59428" lon="1.96598">
        <ele>141.3</ele>
        <time>2022-04-07T07:02:48Z</time>
      </trkpt>
      <trkpt lat="48.59436" lon="1.96607">
        <ele>142.3</ele>
        <time>2022-04-07T07:02:56Z</time>
      </trkpt>
      <trkpt lat="48.59444" lon="1.96599">
        <ele>142.5</ele>
        <time>2022-04-07T07:03:03Z</time>
      </trkpt>
      <trkpt lat="48.59451" lon="1.96587">
        <ele>142.6</ele>
        <time>2022-04-07T07:03:10Z</time>
      </trkpt>
      <trkpt lat="48.59456" lon="1.96575">
        <ele>142.6</ele>
        <time>2022-04-07T07:03:17Z</time>
      </trkpt>
      <trkpt lat="48.59461" lon="1.96563">
        <ele>142.5</ele>
        <time>2022-04-07T07:03:24Z</time>
      </trkpt>
      <trkpt lat="48.59466" lon="1.9655">
        <ele>142.5</ele>
        <time>2022-04-07T07:03:31Z</time>
      </trkpt>
      <trkpt lat="48.59472" lon="1.96537">
        <ele>143</ele>
        <time>2022-04-07T07:03:39Z</time>
      </trkpt>
      <trkpt lat="48.59477" lon="1.96525">
        <ele>143.8</ele>
        <time>2022-04-07T07:03:46Z</time>
      </trkpt>
      <trkpt lat="48.59483" lon="1.96513">
        <ele>144.8</ele>
        <time>2022-04-07T07:03:55Z</time>
      </trkpt>
      <trkpt lat="48.59489" lon="1.96502">
        <ele>145.9</ele>
        <time>2022-04-07T07:04:02Z</time>
      </trkpt>
      <trkpt lat="48.59493" lon="1.9649">
        <ele>146.8</ele>
        <time>2022-04-07T07:04:09Z</time>
      </trkpt>
      <trkpt lat="48.595" lon="1.96477">
        <ele>147.9</ele>
        <time>2022-04-07T07:04:17Z</time>
      </trkpt>
      <trkpt lat="48.59505" lon="1.96465">
        <ele>148.4</ele>
        <time>2022-04-07T07:04:24Z</time>
      </trkpt>
      <trkpt lat="48.5951" lon="1.96454">
        <ele>149</ele>
        <time>2022-04-07T07:04:31Z</time>
      </trkpt>
      <trkpt lat="48.59514" lon="1.96442">
        <ele>149.5</ele>
        <time>2022-04-07T07:04:39Z</time>
      </trkpt>
      <trkpt lat="48.5952" lon="1.96432">
        <ele>150.2</ele>
        <time>2022-04-07T07:04:47Z</time>
      </trkpt>
      <trkpt lat="48.59526" lon="1.9642">
        <ele>150.8</ele>
        <time>2022-04-07T07:04:55Z</time>
      </trkpt>
      <trkpt lat="48.59533" lon="1.96409">
        <ele>151.7</ele>
        <time>2022-04-07T07:05:02Z</time>
      </trkpt>
      <trkpt lat="48.59539" lon="1.96397">
        <ele>152.7</ele>
        <time>2022-04-07T07:05:10Z</time>
      </trkpt>
      <trkpt lat="48.59545" lon="1.96385">
        <ele>153.4</ele>
        <time>2022-04-07T07:05:18Z</time>
      </trkpt>
      <trkpt lat="48.59551" lon="1.96373">
        <ele>154.3</ele>
        <time>2022-04-07T07:05:26Z</time>
      </trkpt>
      <trkpt lat="48.59558" lon="1.96362">
        <ele>155.3</ele>
        <time>2022-04-07T07:05:34Z</time>
      </trkpt>
      <trkpt lat="48.59564" lon="1.96351">
        <ele>155.3</ele>
        <time>2022-04-07T07:05:41Z</time>
      </trkpt>
      <trkpt lat="48.5957" lon="1.9634">
        <ele>155.3</ele>
        <time>2022-04-07T07:05:48Z</time>
      </trkpt>
      <trkpt lat="48.59575" lon="1.96327">
        <ele>155.3</ele>
        <time>2022-04-07T07:05:55Z</time>
      </trkpt>
      <trkpt lat="48.59579" lon="1.96314">
        <ele>155</ele>
        <time>2022-04-07T07:06:02Z</time>
      </trkpt>
      <trkpt lat="48.59584" lon="1.96301">
        <ele>154.6</ele>
        <time>2022-04-07T07:06:09Z</time>
      </trkpt>
      <trkpt lat="48.59589" lon="1.9629">
        <ele>153.8</ele>
        <time>2022-04-07T07:06:15Z</time>
      </trkpt>
      <trkpt lat="48.59594" lon="1.96279">
        <ele>153.3</ele>
        <time>2022-04-07T07:06:21Z</time>
      </trkpt>
      <trkpt lat="48.596" lon="1.96267">
        <ele>152.2</ele>
        <time>2022-04-07T07:06:28Z</time>
      </trkpt>
      <trkpt lat="48.59607" lon="1.96256">
        <ele>151.4</ele>
        <time>2022-04-07T07:06:35Z</time>
      </trkpt>
      <trkpt lat="48.59612" lon="1.96244">
        <ele>150.2</ele>
        <time>2022-04-07T07:06:42Z</time>
      </trkpt>
      <trkpt lat="48.59616" lon="1.96232">
        <ele>148.5</ele>
        <time>2022-04-07T07:06:50Z</time>
      </trkpt>
      <trkpt lat="48.59621" lon="1.96219">
        <ele>146.8</ele>
        <time>2022-04-07T07:06:58Z</time>
      </trkpt>
      <trkpt lat="48.59627" lon="1.96208">
        <ele>145.5</ele>
        <time>2022-04-07T07:07:05Z</time>
      </trkpt>
      <trkpt lat="48.59632" lon="1.96196">
        <ele>144</ele>
        <time>2022-04-07T07:07:11Z</time>
      </trkpt>
      <trkpt lat="48.59637" lon="1.96184">
        <ele>142.4</ele>
        <time>2022-04-07T07:07:18Z</time>
      </trkpt>
      <trkpt lat="48.59643" lon="1.96172">
        <ele>140.9</ele>
        <time>2022-04-07T07:07:24Z</time>
      </trkpt>
      <trkpt lat="48.59649" lon="1.96161">
        <ele>139.7</ele>
        <time>2022-04-07T07:07:31Z</time>
      </trkpt>
      <trkpt lat="48.59656" lon="1.96151">
        <ele>138.9</ele>
        <time>2022-04-07T07:07:39Z</time>
      </trkpt>
      <trkpt lat="48.59661" lon="1.96139">
        <ele>137.8</ele>
        <time>2022-04-07T07:07:47Z</time>
      </trkpt>
      <trkpt lat="48.59666" lon="1.96127">
        <ele>137.1</ele>
        <time>2022-04-07T07:07:53Z</time>
      </trkpt>
      <trkpt lat="48.59671" lon="1.96114">
        <ele>136.2</ele>
        <time>2022-04-07T07:08:00Z</time>
      </trkpt>
      <trkpt lat="48.59677" lon="1.96101">
        <ele>135.3</ele>
        <time>2022-04-07T07:08:06Z</time>
      </trkpt>
      <trkpt lat="48.59683" lon="1.96091">
        <ele>134.6</ele>
        <time>2022-04-07T07:08:12Z</time>
      </trkpt>
      <trkpt lat="48.59689" lon="1.9608">
        <ele>133.7</ele>
        <time>2022-04-07T07:08:19Z</time>
      </trkpt>
      <trkpt lat="48.59694" lon="1.96067">
        <ele>132.3</ele>
        <time>2022-04-07T07:08:26Z</time>
      </trkpt>
      <trkpt lat="48.597" lon="1.96055">
        <ele>131</ele>
        <time>2022-04-07T07:08:34Z</time>
      </trkpt>
      <trkpt lat="48.59705" lon="1.96042">
        <ele>130.2</ele>
        <time>2022-04-07T07:08:41Z</time>
      </trkpt>
      <trkpt lat="48.5971" lon="1.96032">
        <ele>129.8</ele>
        <time>2022-04-07T07:08:48Z</time>
      </trkpt>
      <trkpt lat="48.59718" lon="1.96021">
        <ele>129.6</ele>
        <time>2022-04-07T07:08:56Z</time>
      </trkpt>
      <trkpt lat="48.59723" lon="1.9601">
        <ele>129.4</ele>
        <time>2022-04-07T07:09:02Z</time>
      </trkpt>
      <trkpt lat="48.59728" lon="1.95997">
        <ele>129.1</ele>
        <time>2022-04-07T07:09:09Z</time>
      </trkpt>
      <trkpt lat="48.59733" lon="1.95984">
        <ele>128.8</ele>
        <time>2022-04-07T07:09:16Z</time>
      </trkpt>
      <trkpt lat="48.59739" lon="1.95972">
        <ele>128.6</ele>
        <time>2022-04-07T07:09:23Z</time>
      </trkpt>
      <trkpt lat="48.59744" lon="1.9596">
        <ele>128.3</ele>
        <time>2022-04-07T07:09:29Z</time>
      </trkpt>
      <trkpt lat="48.59751" lon="1.95948">
        <ele>128.1</ele>
        <time>2022-04-07T07:09:36Z</time>
      </trkpt>
      <trkpt lat="48.59755" lon="1.95935">
        <ele>127.4</ele>
        <time>2022-04-07T07:09:42Z</time>
      </trkpt>
      <trkpt lat="48.59758" lon="1.95923">
        <ele>126.7</ele>
        <time>2022-04-07T07:09:48Z</time>
      </trkpt>
      <trkpt lat="48.59766" lon="1.95913">
        <ele>126.5</ele>
        <time>2022-04-07T07:09:56Z</time>
      </trkpt>
      <trkpt lat="48.59771" lon="1.959">
        <ele>126.2</ele>
        <time>2022-04-07T07:10:03Z</time>
      </trkpt>
      <trkpt lat="48.59778" lon="1.95889">
        <ele>126</ele>
        <time>2022-04-07T07:10:10Z</time>
      </trkpt>
      <trkpt lat="48.59783" lon="1.95876">
        <ele>125.6</ele>
        <time>2022-04-07T07:10:16Z</time>
      </trkpt>
      <trkpt lat="48.59789" lon="1.95865">
        <ele>125.2</ele>
        <time>2022-04-07T07:10:23Z</time>
      </trkpt>
      <trkpt lat="48.59794" lon="1.95851">
        <ele>124.7</ele>
        <time>2022-04-07T07:10:30Z</time>
      </trkpt>
      <trkpt lat="48.598" lon="1.9584">
        <ele>124.2</ele>
        <time>2022-04-07T07:10:37Z</time>
      </trkpt>
      <trkpt lat="48.59804" lon="1.95827">
        <ele>123.8</ele>
        <time>2022-04-07T07:10:43Z</time>
      </trkpt>
      <trkpt lat="48.59808" lon="1.95813">
        <ele>123.4</ele>
        <time>2022-04-07T07:10:49Z</time>
      </trkpt>
      <trkpt lat="48.59814" lon="1.95802">
        <ele>123.3</ele>
        <time>2022-04-07T07:10:56Z</time>
      </trkpt>
      <trkpt lat="48.5982" lon="1.95791">
        <ele>123.2</ele>
        <time>2022-04-07T07:11:03Z</time>
      </trkpt>
      <trkpt lat="48.59826" lon="1.95778">
        <ele>123</ele>
        <time>2022-04-07T07:11:11Z</time>
      </trkpt>
      <trkpt lat="48.59832" lon="1.95768">
        <ele>123</ele>
        <time>2022-04-07T07:11:18Z</time>
      </trkpt>
      <trkpt lat="48.59839" lon="1.95757">
        <ele>123.1</ele>
        <time>2022-04-07T07:11:25Z</time>
      </trkpt>
      <trkpt lat="48.59845" lon="1.95746">
        <ele>122.9</ele>
        <time>2022-04-07T07:11:32Z</time>
      </trkpt>
      <trkpt lat="48.59852" lon="1.95735">
        <ele>122.8</ele>
        <time>2022-04-07T07:11:39Z</time>
      </trkpt>
      <trkpt lat="48.59858" lon="1.95723">
        <ele>122.9</ele>
        <time>2022-04-07T07:11:47Z</time>
      </trkpt>
      <trkpt lat="48.59863" lon="1.95711">
        <ele>122.6</ele>
        <time>2022-04-07T07:11:54Z</time>
      </trkpt>
      <trkpt lat="48.59867" lon="1.95698">
        <ele>122.3</ele>
        <time>2022-04-07T07:12:02Z</time>
      </trkpt>
      <trkpt lat="48.59871" lon="1.95685">
        <ele>122.1</ele>
        <time>2022-04-07T07:12:10Z</time>
      </trkpt>
      <trkpt lat="48.59876" lon="1.95671">
        <ele>122.1</ele>
        <time>2022-04-07T07:12:22Z</time>
      </trkpt>
      <trkpt lat="48.59883" lon="1.95661">
        <ele>122.4</ele>
        <time>2022-04-07T07:12:30Z</time>
      </trkpt>
      <trkpt lat="48.59888" lon="1.95649">
        <ele>122.3</ele>
        <time>2022-04-07T07:12:38Z</time>
      </trkpt>
      <trkpt lat="48.59895" lon="1.95639">
        <ele>122.2</ele>
        <time>2022-04-07T07:12:45Z</time>
      </trkpt>
      <trkpt lat="48.59902" lon="1.95628">
        <ele>122.1</ele>
        <time>2022-04-07T07:12:53Z</time>
      </trkpt>
      <trkpt lat="48.59907" lon="1.95615">
        <ele>121.8</ele>
        <time>2022-04-07T07:13:00Z</time>
      </trkpt>
      <trkpt lat="48.59913" lon="1.95604">
        <ele>121.6</ele>
        <time>2022-04-07T07:13:08Z</time>
      </trkpt>
      <trkpt lat="48.5992" lon="1.95596">
        <ele>121.5</ele>
        <time>2022-04-07T07:13:15Z</time>
      </trkpt>
      <trkpt lat="48.59927" lon="1.95584">
        <ele>121</ele>
        <time>2022-04-07T07:13:22Z</time>
      </trkpt>
      <trkpt lat="48.59931" lon="1.95572">
        <ele>120.8</ele>
        <time>2022-04-07T07:13:28Z</time>
      </trkpt>
      <trkpt lat="48.59934" lon="1.95559">
        <ele>120.7</ele>
        <time>2022-04-07T07:13:34Z</time>
      </trkpt>
      <trkpt lat="48.5994" lon="1.95545">
        <ele>120.5</ele>
        <time>2022-04-07T07:13:41Z</time>
      </trkpt>
      <trkpt lat="48.59943" lon="1.95532">
        <ele>120.2</ele>
        <time>2022-04-07T07:13:47Z</time>
      </trkpt>
      <trkpt lat="48.59948" lon="1.95519">
        <ele>119.4</ele>
        <time>2022-04-07T07:13:54Z</time>
      </trkpt>
      <trkpt lat="48.59953" lon="1.95506">
        <ele>118.6</ele>
        <time>2022-04-07T07:14:00Z</time>
      </trkpt>
      <trkpt lat="48.59959" lon="1.95494">
        <ele>117.8</ele>
        <time>2022-04-07T07:14:07Z</time>
      </trkpt>
      <trkpt lat="48.59965" lon="1.95483">
        <ele>116.9</ele>
        <time>2022-04-07T07:14:14Z</time>
      </trkpt>
      <trkpt lat="48.59971" lon="1.9547">
        <ele>116</ele>
        <time>2022-04-07T07:14:21Z</time>
      </trkpt>
      <trkpt lat="48.59977" lon="1.95461">
        <ele>115.4</ele>
        <time>2022-04-07T07:14:28Z</time>
      </trkpt>
      <trkpt lat="48.59983" lon="1.95448">
        <ele>114.7</ele>
        <time>2022-04-07T07:14:35Z</time>
      </trkpt>
      <trkpt lat="48.59986" lon="1.95433">
        <ele>114.5</ele>
        <time>2022-04-07T07:14:41Z</time>
      </trkpt>
      <trkpt lat="48.59993" lon="1.95422">
        <ele>114.3</ele>
        <time>2022-04-07T07:14:49Z</time>
      </trkpt>
      <trkpt lat="48.6" lon="1.95413">
        <ele>114</ele>
        <time>2022-04-07T07:14:57Z</time>
      </trkpt>
      <trkpt lat="48.60005" lon="1.954">
        <ele>114</ele>
        <time>2022-04-07T07:15:05Z</time>
      </trkpt>
      <trkpt lat="48.60011" lon="1.95388">
        <ele>114</ele>
        <time>2022-04-07T07:15:11Z</time>
      </trkpt>
      <trkpt lat="48.60017" lon="1.95376">
        <ele>113.7</ele>
        <time>2022-04-07T07:15:17Z</time>
      </trkpt>
      <trkpt lat="48.60022" lon="1.95365">
        <ele>113.3</ele>
        <time>2022-04-07T07:15:23Z</time>
      </trkpt>
      <trkpt lat="48.60027" lon="1.95351">
        <ele>113</ele>
        <time>2022-04-07T07:15:30Z</time>
      </trkpt>
      <trkpt lat="48.60033" lon="1.9534">
        <ele>113</ele>
        <time>2022-04-07T07:15:36Z</time>
      </trkpt>
      <trkpt lat="48.60039" lon="1.95329">
        <ele>113</ele>
        <time>2022-04-07T07:15:43Z</time>
      </trkpt>
      <trkpt lat="48.60046" lon="1.9532">
        <ele>113</ele>
        <time>2022-04-07T07:15:49Z</time>
      </trkpt>
      <trkpt lat="48.60055" lon="1.95312">
        <ele>113</ele>
        <time>2022-04-07T07:15:56Z</time>
      </trkpt>
      <trkpt lat="48.60063" lon="1.95303">
        <ele>112.7</ele>
        <time>2022-04-07T07:16:03Z</time>
      </trkpt>
      <trkpt lat="48.60071" lon="1.95294">
        <ele>112.7</ele>
        <time>2022-04-07T07:16:11Z</time>
      </trkpt>
      <trkpt lat="48.60077" lon="1.95283">
        <ele>112.9</ele>
        <time>2022-04-07T07:16:18Z</time>
      </trkpt>
      <trkpt lat="48.60084" lon="1.95271">
        <ele>113</ele>
        <time>2022-04-07T07:16:24Z</time>
      </trkpt>
      <trkpt lat="48.6009" lon="1.95261">
        <ele>113</ele>
        <time>2022-04-07T07:16:30Z</time>
      </trkpt>
      <trkpt lat="48.60097" lon="1.95251">
        <ele>113</ele>
        <time>2022-04-07T07:16:36Z</time>
      </trkpt>
      <trkpt lat="48.60106" lon="1.95247">
        <ele>113</ele>
        <time>2022-04-07T07:16:43Z</time>
      </trkpt>
      <trkpt lat="48.60115" lon="1.95241">
        <ele>113</ele>
        <time>2022-04-07T07:16:50Z</time>
      </trkpt>
      <trkpt lat="48.60125" lon="1.95236">
        <ele>113</ele>
        <time>2022-04-07T07:16:58Z</time>
      </trkpt>
      <trkpt lat="48.60133" lon="1.95231">
        <ele>113</ele>
        <time>2022-04-07T07:17:04Z</time>
      </trkpt>
      <trkpt lat="48.60142" lon="1.95227">
        <ele>113</ele>
        <time>2022-04-07T07:17:11Z</time>
      </trkpt>
      <trkpt lat="48.60152" lon="1.95222">
        <ele>113</ele>
        <time>2022-04-07T07:17:18Z</time>
      </trkpt>
      <trkpt lat="48.60161" lon="1.95215">
        <ele>113</ele>
        <time>2022-04-07T07:17:25Z</time>
      </trkpt>
      <trkpt lat="48.6017" lon="1.95212">
        <ele>113</ele>
        <time>2022-04-07T07:17:32Z</time>
      </trkpt>
      <trkpt lat="48.60179" lon="1.95205">
        <ele>113</ele>
        <time>2022-04-07T07:17:39Z</time>
      </trkpt>
      <trkpt lat="48.60188" lon="1.95201">
        <ele>113</ele>
        <time>2022-04-07T07:17:46Z</time>
      </trkpt>
      <trkpt lat="48.60197" lon="1.95195">
        <ele>113</ele>
        <time>2022-04-07T07:17:52Z</time>
      </trkpt>
      <trkpt lat="48.60206" lon="1.95195">
        <ele>113</ele>
        <time>2022-04-07T07:19:50Z</time>
      </trkpt>
      <trkpt lat="48.60215" lon="1.95189">
        <ele>113.1</ele>
        <time>2022-04-07T07:19:58Z</time>
      </trkpt>
      <trkpt lat="48.60224" lon="1.95183">
        <ele>113</ele>
        <time>2022-04-07T07:20:05Z</time>
      </trkpt>
      <trkpt lat="48.60233" lon="1.95177">
        <ele>113</ele>
        <time>2022-04-07T07:20:12Z</time>
      </trkpt>
      <trkpt lat="48.60242" lon="1.95173">
        <ele>113</ele>
        <time>2022-04-07T07:20:19Z</time>
      </trkpt>
      <trkpt lat="48.60251" lon="1.95169">
        <ele>113</ele>
        <time>2022-04-07T07:20:25Z</time>
      </trkpt>
      <trkpt lat="48.60261" lon="1.95165">
        <ele>113</ele>
        <time>2022-04-07T07:20:35Z</time>
      </trkpt>
      <trkpt lat="48.60271" lon="1.9516">
        <ele>113</ele>
        <time>2022-04-07T07:20:42Z</time>
      </trkpt>
      <trkpt lat="48.6028" lon="1.95154">
        <ele>113</ele>
        <time>2022-04-07T07:20:48Z</time>
      </trkpt>
      <trkpt lat="48.60289" lon="1.95154">
        <ele>113</ele>
        <time>2022-04-07T07:20:55Z</time>
      </trkpt>
      <trkpt lat="48.60298" lon="1.95152">
        <ele>113</ele>
        <time>2022-04-07T07:21:02Z</time>
      </trkpt>
      <trkpt lat="48.60307" lon="1.95146">
        <ele>113</ele>
        <time>2022-04-07T07:21:08Z</time>
      </trkpt>
      <trkpt lat="48.60316" lon="1.95142">
        <ele>113</ele>
        <time>2022-04-07T07:21:14Z</time>
      </trkpt>
      <trkpt lat="48.60326" lon="1.95134">
        <ele>113</ele>
        <time>2022-04-07T07:21:21Z</time>
      </trkpt>
      <trkpt lat="48.60334" lon="1.95126">
        <ele>113</ele>
        <time>2022-04-07T07:21:27Z</time>
      </trkpt>
      <trkpt lat="48.60343" lon="1.9512">
        <ele>113</ele>
        <time>2022-04-07T07:21:34Z</time>
      </trkpt>
      <trkpt lat="48.60352" lon="1.95116">
        <ele>113</ele>
        <time>2022-04-07T07:21:41Z</time>
      </trkpt>
      <trkpt lat="48.60361" lon="1.95113">
        <ele>113</ele>
        <time>2022-04-07T07:21:49Z</time>
      </trkpt>
      <trkpt lat="48.6037" lon="1.9511">
        <ele>113</ele>
        <time>2022-04-07T07:21:55Z</time>
      </trkpt>
      <trkpt lat="48.60379" lon="1.95106">
        <ele>113</ele>
        <time>2022-04-07T07:22:01Z</time>
      </trkpt>
      <trkpt lat="48.60387" lon="1.95098">
        <ele>113</ele>
        <time>2022-04-07T07:22:07Z</time>
      </trkpt>
      <trkpt lat="48.60395" lon="1.95092">
        <ele>113</ele>
        <time>2022-04-07T07:22:14Z</time>
      </trkpt>
      <trkpt lat="48.60404" lon="1.95087">
        <ele>113</ele>
        <time>2022-04-07T07:22:23Z</time>
      </trkpt>
      <trkpt lat="48.60413" lon="1.95082">
        <ele>113</ele>
        <time>2022-04-07T07:22:31Z</time>
      </trkpt>
      <trkpt lat="48.60422" lon="1.95077">
        <ele>112.9</ele>
        <time>2022-04-07T07:22:38Z</time>
      </trkpt>
      <trkpt lat="48.60432" lon="1.95073">
        <ele>112.7</ele>
        <time>2022-04-07T07:22:45Z</time>
      </trkpt>
      <trkpt lat="48.60442" lon="1.95069">
        <ele>112.5</ele>
        <time>2022-04-07T07:22:51Z</time>
      </trkpt>
      <trkpt lat="48.60452" lon="1.95066">
        <ele>112.5</ele>
        <time>2022-04-07T07:22:57Z</time>
      </trkpt>
      <trkpt lat="48.6046" lon="1.95062">
        <ele>112.3</ele>
        <time>2022-04-07T07:23:02Z</time>
      </trkpt>
      <trkpt lat="48.60469" lon="1.95055">
        <ele>112.1</ele>
        <time>2022-04-07T07:23:08Z</time>
      </trkpt>
      <trkpt lat="48.60478" lon="1.9505">
        <ele>112</ele>
        <time>2022-04-07T07:23:14Z</time>
      </trkpt>
      <trkpt lat="48.60487" lon="1.95047">
        <ele>112</ele>
        <time>2022-04-07T07:23:21Z</time>
      </trkpt>
      <trkpt lat="48.60497" lon="1.9505">
        <ele>112</ele>
        <time>2022-04-07T07:23:28Z</time>
      </trkpt>
      <trkpt lat="48.60507" lon="1.95052">
        <ele>112</ele>
        <time>2022-04-07T07:23:34Z</time>
      </trkpt>
      <trkpt lat="48.60516" lon="1.95057">
        <ele>112</ele>
        <time>2022-04-07T07:23:41Z</time>
      </trkpt>
      <trkpt lat="48.60526" lon="1.95062">
        <ele>112</ele>
        <time>2022-04-07T07:23:48Z</time>
      </trkpt>
      <trkpt lat="48.60532" lon="1.95074">
        <ele>111.9</ele>
        <time>2022-04-07T07:23:55Z</time>
      </trkpt>
      <trkpt lat="48.60538" lon="1.95085">
        <ele>111.6</ele>
        <time>2022-04-07T07:24:01Z</time>
      </trkpt>
      <trkpt lat="48.60542" lon="1.95097">
        <ele>111.5</ele>
        <time>2022-04-07T07:24:08Z</time>
      </trkpt>
      <trkpt lat="48.60545" lon="1.95112">
        <ele>111.4</ele>
        <time>2022-04-07T07:24:15Z</time>
      </trkpt>
      <trkpt lat="48.60551" lon="1.95122">
        <ele>111.2</ele>
        <time>2022-04-07T07:24:22Z</time>
      </trkpt>
      <trkpt lat="48.60557" lon="1.95134">
        <ele>111</ele>
        <time>2022-04-07T07:24:28Z</time>
      </trkpt>
      <trkpt lat="48.60562" lon="1.95146">
        <ele>111</ele>
        <time>2022-04-07T07:24:37Z</time>
      </trkpt>
      <trkpt lat="48.60569" lon="1.95154">
        <ele>111</ele>
        <time>2022-04-07T07:24:45Z</time>
      </trkpt>
      <trkpt lat="48.60572" lon="1.95168">
        <ele>111</ele>
        <time>2022-04-07T07:24:53Z</time>
      </trkpt>
      <trkpt lat="48.60574" lon="1.95182">
        <ele>111</ele>
        <time>2022-04-07T07:25:01Z</time>
      </trkpt>
      <trkpt lat="48.60574" lon="1.95198">
        <ele>111</ele>
        <time>2022-04-07T07:25:10Z</time>
      </trkpt>
      <trkpt lat="48.60577" lon="1.95212">
        <ele>111</ele>
        <time>2022-04-07T07:25:16Z</time>
      </trkpt>
      <trkpt lat="48.6058" lon="1.95227">
        <ele>111</ele>
        <time>2022-04-07T07:25:23Z</time>
      </trkpt>
      <trkpt lat="48.60577" lon="1.95241">
        <ele>111</ele>
        <time>2022-04-07T07:25:28Z</time>
      </trkpt>
      <trkpt lat="48.60576" lon="1.95256">
        <ele>110.8</ele>
        <time>2022-04-07T07:25:34Z</time>
      </trkpt>
      <trkpt lat="48.60575" lon="1.9527">
        <ele>110.5</ele>
        <time>2022-04-07T07:25:40Z</time>
      </trkpt>
      <trkpt lat="48.60574" lon="1.95285">
        <ele>110.2</ele>
        <time>2022-04-07T07:25:47Z</time>
      </trkpt>
      <trkpt lat="48.60574" lon="1.953">
        <ele>110.1</ele>
        <time>2022-04-07T07:25:53Z</time>
      </trkpt>
      <trkpt lat="48.60576" lon="1.95313">
        <ele>110</ele>
        <time>2022-04-07T07:25:59Z</time>
      </trkpt>
      <trkpt lat="48.60581" lon="1.95327">
        <ele>110</ele>
        <time>2022-04-07T07:26:06Z</time>
      </trkpt>
      <trkpt lat="48.60584" lon="1.9534">
        <ele>109.8</ele>
        <time>2022-04-07T07:26:12Z</time>
      </trkpt>
      <trkpt lat="48.60589" lon="1.95351">
        <ele>109.5</ele>
        <time>2022-04-07T07:26:17Z</time>
      </trkpt>
      <trkpt lat="48.60591" lon="1.95366">
        <ele>109.2</ele>
        <time>2022-04-07T07:26:24Z</time>
      </trkpt>
      <trkpt lat="48.60592" lon="1.9538">
        <ele>109.1</ele>
        <time>2022-04-07T07:26:30Z</time>
      </trkpt>
      <trkpt lat="48.6059" lon="1.95394">
        <ele>109</ele>
        <time>2022-04-07T07:26:36Z</time>
      </trkpt>
      <trkpt lat="48.60593" lon="1.95408">
        <ele>109</ele>
        <time>2022-04-07T07:26:42Z</time>
      </trkpt>
      <trkpt lat="48.60595" lon="1.95422">
        <ele>109</ele>
        <time>2022-04-07T07:26:48Z</time>
      </trkpt>
      <trkpt lat="48.60598" lon="1.95436">
        <ele>109</ele>
        <time>2022-04-07T07:26:55Z</time>
      </trkpt>
      <trkpt lat="48.60599" lon="1.9545">
        <ele>109</ele>
        <time>2022-04-07T07:27:01Z</time>
      </trkpt>
      <trkpt lat="48.60604" lon="1.95463">
        <ele>109</ele>
        <time>2022-04-07T07:27:08Z</time>
      </trkpt>
      <trkpt lat="48.60607" lon="1.95476">
        <ele>109</ele>
        <time>2022-04-07T07:27:14Z</time>
      </trkpt>
      <trkpt lat="48.60606" lon="1.9549">
        <ele>109</ele>
        <time>2022-04-07T07:27:20Z</time>
      </trkpt>
      <trkpt lat="48.60605" lon="1.95504">
        <ele>109</ele>
        <time>2022-04-07T07:27:27Z</time>
      </trkpt>
      <trkpt lat="48.60606" lon="1.95517">
        <ele>109</ele>
        <time>2022-04-07T07:27:33Z</time>
      </trkpt>
      <trkpt lat="48.60607" lon="1.95533">
        <ele>108.8</ele>
        <time>2022-04-07T07:27:40Z</time>
      </trkpt>
      <trkpt lat="48.60609" lon="1.95547">
        <ele>108.4</ele>
        <time>2022-04-07T07:27:48Z</time>
      </trkpt>
      <trkpt lat="48.60609" lon="1.95562">
        <ele>108.1</ele>
        <time>2022-04-07T07:27:57Z</time>
      </trkpt>
      <trkpt lat="48.60614" lon="1.95574">
        <ele>108</ele>
        <time>2022-04-07T07:28:03Z</time>
      </trkpt>
      <trkpt lat="48.60616" lon="1.95587">
        <ele>108</ele>
        <time>2022-04-07T07:28:09Z</time>
      </trkpt>
      <trkpt lat="48.6062" lon="1.95599">
        <ele>108</ele>
        <time>2022-04-07T07:28:15Z</time>
      </trkpt>
      <trkpt lat="48.60628" lon="1.95609">
        <ele>108</ele>
        <time>2022-04-07T07:28:22Z</time>
      </trkpt>
      <trkpt lat="48.60633" lon="1.9562">
        <ele>108</ele>
        <time>2022-04-07T07:28:28Z</time>
      </trkpt>
      <trkpt lat="48.60641" lon="1.95629">
        <ele>108</ele>
        <time>2022-04-07T07:28:34Z</time>
      </trkpt>
      <trkpt lat="48.60651" lon="1.95632">
        <ele>108</ele>
        <time>2022-04-07T07:28:40Z</time>
      </trkpt>
      <trkpt lat="48.60658" lon="1.95639">
        <ele>108</ele>
        <time>2022-04-07T07:28:47Z</time>
      </trkpt>
      <trkpt lat="48.60667" lon="1.95643">
        <ele>108</ele>
        <time>2022-04-07T07:28:53Z</time>
      </trkpt>
      <trkpt lat="48.60676" lon="1.95647">
        <ele>107.8</ele>
        <time>2022-04-07T07:29:01Z</time>
      </trkpt>
      <trkpt lat="48.60686" lon="1.95655">
        <ele>107.7</ele>
        <time>2022-04-07T07:29:08Z</time>
      </trkpt>
      <trkpt lat="48.60693" lon="1.95666">
        <ele>108</ele>
        <time>2022-04-07T07:29:14Z</time>
      </trkpt>
      <trkpt lat="48.60694" lon="1.95681">
        <ele>108</ele>
        <time>2022-04-07T07:29:21Z</time>
      </trkpt>
      <trkpt lat="48.60694" lon="1.95695">
        <ele>108</ele>
        <time>2022-04-07T07:29:28Z</time>
      </trkpt>
      <trkpt lat="48.60694" lon="1.9571">
        <ele>108</ele>
        <time>2022-04-07T07:29:36Z</time>
      </trkpt>
      <trkpt lat="48.60695" lon="1.95726">
        <ele>108</ele>
        <time>2022-04-07T07:29:44Z</time>
      </trkpt>
      <trkpt lat="48.60698" lon="1.95739">
        <ele>107.9</ele>
        <time>2022-04-07T07:29:51Z</time>
      </trkpt>
      <trkpt lat="48.60703" lon="1.95751">
        <ele>107.7</ele>
        <time>2022-04-07T07:29:57Z</time>
      </trkpt>
      <trkpt lat="48.60706" lon="1.95765">
        <ele>107.6</ele>
        <time>2022-04-07T07:30:05Z</time>
      </trkpt>
      <trkpt lat="48.60704" lon="1.95779">
        <ele>107.6</ele>
        <time>2022-04-07T07:30:13Z</time>
      </trkpt>
      <trkpt lat="48.60701" lon="1.95794">
        <ele>107.3</ele>
        <time>2022-04-07T07:30:21Z</time>
      </trkpt>
      <trkpt lat="48.60701" lon="1.9581">
        <ele>107</ele>
        <time>2022-04-07T07:30:28Z</time>
      </trkpt>
      <trkpt lat="48.60702" lon="1.95823">
        <ele>106.8</ele>
        <time>2022-04-07T07:30:35Z</time>
      </trkpt>
      <trkpt lat="48.60701" lon="1.95838">
        <ele>106.7</ele>
        <time>2022-04-07T07:30:43Z</time>
      </trkpt>
      <trkpt lat="48.60699" lon="1.95852">
        <ele>106.8</ele>
        <time>2022-04-07T07:30:49Z</time>
      </trkpt>
      <trkpt lat="48.60695" lon="1.95866">
        <ele>107</ele>
        <time>2022-04-07T07:30:57Z</time>
      </trkpt>
      <trkpt lat="48.6069" lon="1.95878">
        <ele>107</ele>
        <time>2022-04-07T07:31:04Z</time>
      </trkpt>
      <trkpt lat="48.60684" lon="1.95889">
        <ele>107</ele>
        <time>2022-04-07T07:31:12Z</time>
      </trkpt>
      <trkpt lat="48.60678" lon="1.95899">
        <ele>107</ele>
        <time>2022-04-07T07:31:19Z</time>
      </trkpt>
      <trkpt lat="48.60673" lon="1.95912">
        <ele>107</ele>
        <time>2022-04-07T07:31:29Z</time>
      </trkpt>
      <trkpt lat="48.60674" lon="1.95926">
        <ele>107</ele>
        <time>2022-04-07T07:31:37Z</time>
      </trkpt>
      <trkpt lat="48.60676" lon="1.95941">
        <ele>107</ele>
        <time>2022-04-07T07:31:44Z</time>
      </trkpt>
      <trkpt lat="48.60677" lon="1.95956">
        <ele>107</ele>
        <time>2022-04-07T07:31:51Z</time>
      </trkpt>
      <trkpt lat="48.60675" lon="1.95971">
        <ele>107</ele>
        <time>2022-04-07T07:31:59Z</time>
      </trkpt>
      <trkpt lat="48.60668" lon="1.95983">
        <ele>107.8</ele>
        <time>2022-04-07T07:32:05Z</time>
      </trkpt>
      <trkpt lat="48.6066" lon="1.95992">
        <ele>108.4</ele>
        <time>2022-04-07T07:32:12Z</time>
      </trkpt>
      <trkpt lat="48.60651" lon="1.95997">
        <ele>108.8</ele>
        <time>2022-04-07T07:32:19Z</time>
      </trkpt>
      <trkpt lat="48.60643" lon="1.96005">
        <ele>109.3</ele>
        <time>2022-04-07T07:32:27Z</time>
      </trkpt>
      <trkpt lat="48.60634" lon="1.96011">
        <ele>109.8</ele>
        <time>2022-04-07T07:32:34Z</time>
      </trkpt>
      <trkpt lat="48.60625" lon="1.96008">
        <ele>109.6</ele>
        <time>2022-04-07T07:32:41Z</time>
      </trkpt>
      <trkpt lat="48.60615" lon="1.96005">
        <ele>109.4</ele>
        <time>2022-04-07T07:32:47Z</time>
      </trkpt>
      <trkpt lat="48.60607" lon="1.95998">
        <ele>109</ele>
        <time>2022-04-07T07:32:53Z</time>
      </trkpt>
      <trkpt lat="48.60599" lon="1.9599">
        <ele>108.7</ele>
        <time>2022-04-07T07:32:59Z</time>
      </trkpt>
      <trkpt lat="48.6059" lon="1.95985">
        <ele>108.7</ele>
        <time>2022-04-07T07:33:06Z</time>
      </trkpt>
      <trkpt lat="48.60581" lon="1.95979">
        <ele>108.7</ele>
        <time>2022-04-07T07:33:12Z</time>
      </trkpt>
      <trkpt lat="48.60573" lon="1.95971">
        <ele>109.1</ele>
        <time>2022-04-07T07:33:19Z</time>
      </trkpt>
      <trkpt lat="48.60563" lon="1.95963">
        <ele>109.7</ele>
        <time>2022-04-07T07:33:24Z</time>
      </trkpt>
      <trkpt lat="48.60554" lon="1.95957">
        <ele>110</ele>
        <time>2022-04-07T07:33:31Z</time>
      </trkpt>
      <trkpt lat="48.60546" lon="1.95948">
        <ele>110</ele>
        <time>2022-04-07T07:33:38Z</time>
      </trkpt>
      <trkpt lat="48.60538" lon="1.95941">
        <ele>110.1</ele>
        <time>2022-04-07T07:33:44Z</time>
      </trkpt>
      <trkpt lat="48.6053" lon="1.95933">
        <ele>110.4</ele>
        <time>2022-04-07T07:33:51Z</time>
      </trkpt>
      <trkpt lat="48.60522" lon="1.95927">
        <ele>110.8</ele>
        <time>2022-04-07T07:33:59Z</time>
      </trkpt>
      <trkpt lat="48.60514" lon="1.95918">
        <ele>110.6</ele>
        <time>2022-04-07T07:34:06Z</time>
      </trkpt>
      <trkpt lat="48.60506" lon="1.95909">
        <ele>110.2</ele>
        <time>2022-04-07T07:34:14Z</time>
      </trkpt>
      <trkpt lat="48.60497" lon="1.95904">
        <ele>110.3</ele>
        <time>2022-04-07T07:34:20Z</time>
      </trkpt>
      <trkpt lat="48.60488" lon="1.95899">
        <ele>110.5</ele>
        <time>2022-04-07T07:34:26Z</time>
      </trkpt>
      <trkpt lat="48.6048" lon="1.95893">
        <ele>110.7</ele>
        <time>2022-04-07T07:34:33Z</time>
      </trkpt>
      <trkpt lat="48.60471" lon="1.95889">
        <ele>111</ele>
        <time>2022-04-07T07:34:40Z</time>
      </trkpt>
      <trkpt lat="48.60462" lon="1.95884">
        <ele>110.6</ele>
        <time>2022-04-07T07:34:47Z</time>
      </trkpt>
      <trkpt lat="48.60451" lon="1.95882">
        <ele>110.5</ele>
        <time>2022-04-07T07:34:54Z</time>
      </trkpt>
      <trkpt lat="48.60441" lon="1.95882">
        <ele>110.6</ele>
        <time>2022-04-07T07:35:00Z</time>
      </trkpt>
      <trkpt lat="48.60431" lon="1.95882">
        <ele>111</ele>
        <time>2022-04-07T07:35:07Z</time>
      </trkpt>
      <trkpt lat="48.60421" lon="1.95881">
        <ele>111.3</ele>
        <time>2022-04-07T07:35:14Z</time>
      </trkpt>
      <trkpt lat="48.60411" lon="1.95878">
        <ele>111.3</ele>
        <time>2022-04-07T07:35:22Z</time>
      </trkpt>
      <trkpt lat="48.60402" lon="1.95874">
        <ele>111.2</ele>
        <time>2022-04-07T07:35:28Z</time>
      </trkpt>
      <trkpt lat="48.60393" lon="1.95868">
        <ele>111.2</ele>
        <time>2022-04-07T07:35:35Z</time>
      </trkpt>
      <trkpt lat="48.60383" lon="1.95865">
        <ele>111.2</ele>
        <time>2022-04-07T07:35:42Z</time>
      </trkpt>
      <trkpt lat="48.60373" lon="1.95863">
        <ele>111.1</ele>
        <time>2022-04-07T07:35:49Z</time>
      </trkpt>
      <trkpt lat="48.60363" lon="1.95861">
        <ele>111</ele>
        <time>2022-04-07T07:35:57Z</time>
      </trkpt>
      <trkpt lat="48.60353" lon="1.95861">
        <ele>111.3</ele>
        <time>2022-04-07T07:36:04Z</time>
      </trkpt>
      <trkpt lat="48.60344" lon="1.95857">
        <ele>111.5</ele>
        <time>2022-04-07T07:36:13Z</time>
      </trkpt>
      <trkpt lat="48.60336" lon="1.95847">
        <ele>111.4</ele>
        <time>2022-04-07T07:36:21Z</time>
      </trkpt>
      <trkpt lat="48.60327" lon="1.95841">
        <ele>111.3</ele>
        <time>2022-04-07T07:36:28Z</time>
      </trkpt>
      <trkpt lat="48.60317" lon="1.95836">
        <ele>111.1</ele>
        <time>2022-04-07T07:36:35Z</time>
      </trkpt>
      <trkpt lat="48.60309" lon="1.95828">
        <ele>111</ele>
        <time>2022-04-07T07:36:42Z</time>
      </trkpt>
      <trkpt lat="48.60302" lon="1.95816">
        <ele>111.1</ele>
        <time>2022-04-07T07:36:49Z</time>
      </trkpt>
      <trkpt lat="48.60294" lon="1.9581">
        <ele>111.1</ele>
        <time>2022-04-07T07:36:55Z</time>
      </trkpt>
      <trkpt lat="48.60285" lon="1.95803">
        <ele>111</ele>
        <time>2022-04-07T07:37:02Z</time>
      </trkpt>
      <trkpt lat="48.60275" lon="1.95801">
        <ele>111.1</ele>
        <time>2022-04-07T07:37:12Z</time>
      </trkpt>
      <trkpt lat="48.60269" lon="1.95813">
        <ele>111.6</ele>
        <time>2022-04-07T07:41:56Z</time>
      </trkpt>
      <trkpt lat="48.6026" lon="1.95829">
        <ele>112.5</ele>
        <time>2022-04-07T07:41:59Z</time>
      </trkpt>
      <trkpt lat="48.60252" lon="1.9584">
        <ele>112.9</ele>
        <time>2022-04-07T07:42:16Z</time>
      </trkpt>
      <trkpt lat="48.60247" lon="1.95852">
        <ele>113.1</ele>
        <time>2022-04-07T07:42:22Z</time>
      </trkpt>
      <trkpt lat="48.60242" lon="1.95863">
        <ele>113.3</ele>
        <time>2022-04-07T07:42:27Z</time>
      </trkpt>
      <trkpt lat="48.60237" lon="1.95875">
        <ele>114</ele>
        <time>2022-04-07T07:42:33Z</time>
      </trkpt>
      <trkpt lat="48.6023" lon="1.95887">
        <ele>114.7</ele>
        <time>2022-04-07T07:42:39Z</time>
      </trkpt>
      <trkpt lat="48.60224" lon="1.95899">
        <ele>115.7</ele>
        <time>2022-04-07T07:42:44Z</time>
      </trkpt>
      <trkpt lat="48.60219" lon="1.9591">
        <ele>116.7</ele>
        <time>2022-04-07T07:42:50Z</time>
      </trkpt>
      <trkpt lat="48.60212" lon="1.95921">
        <ele>117.9</ele>
        <time>2022-04-07T07:42:56Z</time>
      </trkpt>
      <trkpt lat="48.60206" lon="1.95933">
        <ele>119.3</ele>
        <time>2022-04-07T07:43:02Z</time>
      </trkpt>
      <trkpt lat="48.60199" lon="1.95945">
        <ele>120.9</ele>
        <time>2022-04-07T07:43:10Z</time>
      </trkpt>
      <trkpt lat="48.60194" lon="1.95958">
        <ele>122</ele>
        <time>2022-04-07T07:43:18Z</time>
      </trkpt>
      <trkpt lat="48.60189" lon="1.95971">
        <ele>122.5</ele>
        <time>2022-04-07T07:43:26Z</time>
      </trkpt>
      <trkpt lat="48.60185" lon="1.95983">
        <ele>123.7</ele>
        <time>2022-04-07T07:43:33Z</time>
      </trkpt>
      <trkpt lat="48.60179" lon="1.95995">
        <ele>124.7</ele>
        <time>2022-04-07T07:43:39Z</time>
      </trkpt>
      <trkpt lat="48.60172" lon="1.96004">
        <ele>124.7</ele>
        <time>2022-04-07T07:43:45Z</time>
      </trkpt>
      <trkpt lat="48.60166" lon="1.96017">
        <ele>124.5</ele>
        <time>2022-04-07T07:43:51Z</time>
      </trkpt>
      <trkpt lat="48.6016" lon="1.96028">
        <ele>124.3</ele>
        <time>2022-04-07T07:43:58Z</time>
      </trkpt>
      <trkpt lat="48.60155" lon="1.9604">
        <ele>124.2</ele>
        <time>2022-04-07T07:44:07Z</time>
      </trkpt>
      <trkpt lat="48.60158" lon="1.96054">
        <ele>124.9</ele>
        <time>2022-04-07T07:44:15Z</time>
      </trkpt>
      <trkpt lat="48.60155" lon="1.96068">
        <ele>125.4</ele>
        <time>2022-04-07T07:44:24Z</time>
      </trkpt>
      <trkpt lat="48.60157" lon="1.96082">
        <ele>126.3</ele>
        <time>2022-04-07T07:44:32Z</time>
      </trkpt>
      <trkpt lat="48.6016" lon="1.96096">
        <ele>126.9</ele>
        <time>2022-04-07T07:44:40Z</time>
      </trkpt>
      <trkpt lat="48.60158" lon="1.9611">
        <ele>127.3</ele>
        <time>2022-04-07T07:44:47Z</time>
      </trkpt>
      <trkpt lat="48.6016" lon="1.96124">
        <ele>128</ele>
        <time>2022-04-07T07:44:54Z</time>
      </trkpt>
      <trkpt lat="48.6016" lon="1.96138">
        <ele>128.5</ele>
        <time>2022-04-07T07:45:01Z</time>
      </trkpt>
      <trkpt lat="48.60162" lon="1.96153">
        <ele>128.8</ele>
        <time>2022-04-07T07:45:08Z</time>
      </trkpt>
      <trkpt lat="48.60163" lon="1.96166">
        <ele>129</ele>
        <time>2022-04-07T07:45:14Z</time>
      </trkpt>
      <trkpt lat="48.60162" lon="1.9618">
        <ele>129.4</ele>
        <time>2022-04-07T07:45:21Z</time>
      </trkpt>
      <trkpt lat="48.60158" lon="1.96194">
        <ele>129.7</ele>
        <time>2022-04-07T07:45:28Z</time>
      </trkpt>
      <trkpt lat="48.60156" lon="1.96208">
        <ele>130.4</ele>
        <time>2022-04-07T07:45:36Z</time>
      </trkpt>
      <trkpt lat="48.60157" lon="1.96222">
        <ele>131.3</ele>
        <time>2022-04-07T07:45:44Z</time>
      </trkpt>
      <trkpt lat="48.60164" lon="1.96232">
        <ele>132.5</ele>
        <time>2022-04-07T07:45:52Z</time>
      </trkpt>
      <trkpt lat="48.60172" lon="1.96238">
        <ele>133.9</ele>
        <time>2022-04-07T07:45:59Z</time>
      </trkpt>
      <trkpt lat="48.6018" lon="1.96247">
        <ele>135.7</ele>
        <time>2022-04-07T07:46:07Z</time>
      </trkpt>
      <trkpt lat="48.60187" lon="1.96255">
        <ele>136.9</ele>
        <time>2022-04-07T07:46:15Z</time>
      </trkpt>
      <trkpt lat="48.60196" lon="1.96263">
        <ele>137.7</ele>
        <time>2022-04-07T07:46:22Z</time>
      </trkpt>
      <trkpt lat="48.60204" lon="1.9627">
        <ele>138.3</ele>
        <time>2022-04-07T07:46:29Z</time>
      </trkpt>
      <trkpt lat="48.60213" lon="1.9628">
        <ele>139</ele>
        <time>2022-04-07T07:46:37Z</time>
      </trkpt>
      <trkpt lat="48.60221" lon="1.96287">
        <ele>139.8</ele>
        <time>2022-04-07T07:46:44Z</time>
      </trkpt>
      <trkpt lat="48.60228" lon="1.96296">
        <ele>140.1</ele>
        <time>2022-04-07T07:46:52Z</time>
      </trkpt>
      <trkpt lat="48.60236" lon="1.96304">
        <ele>140</ele>
        <time>2022-04-07T07:46:59Z</time>
      </trkpt>
      <trkpt lat="48.60243" lon="1.96316">
        <ele>139.6</ele>
        <time>2022-04-07T07:47:07Z</time>
      </trkpt>
      <trkpt lat="48.60252" lon="1.96322">
        <ele>139.4</ele>
        <time>2022-04-07T07:47:14Z</time>
      </trkpt>
      <trkpt lat="48.60261" lon="1.96328">
        <ele>139.2</ele>
        <time>2022-04-07T07:47:19Z</time>
      </trkpt>
      <trkpt lat="48.60269" lon="1.96334">
        <ele>139</ele>
        <time>2022-04-07T07:47:23Z</time>
      </trkpt>
      <trkpt lat="48.60278" lon="1.96342">
        <ele>138.7</ele>
        <time>2022-04-07T07:47:29Z</time>
      </trkpt>
      <trkpt lat="48.60287" lon="1.96351">
        <ele>138.9</ele>
        <time>2022-04-07T07:47:35Z</time>
      </trkpt>
      <trkpt lat="48.60295" lon="1.96359">
        <ele>139.3</ele>
        <time>2022-04-07T07:47:41Z</time>
      </trkpt>
      <trkpt lat="48.60302" lon="1.96368">
        <ele>139.7</ele>
        <time>2022-04-07T07:47:47Z</time>
      </trkpt>
      <trkpt lat="48.60308" lon="1.9638">
        <ele>140.2</ele>
        <time>2022-04-07T07:47:59Z</time>
      </trkpt>
      <trkpt lat="48.60302" lon="1.9639">
        <ele>139.8</ele>
        <time>2022-04-07T07:48:09Z</time>
      </trkpt>
      <trkpt lat="48.60295" lon="1.96399">
        <ele>139.4</ele>
        <time>2022-04-07T07:48:15Z</time>
      </trkpt>
      <trkpt lat="48.6029" lon="1.96411">
        <ele>139.3</ele>
        <time>2022-04-07T07:48:22Z</time>
      </trkpt>
      <trkpt lat="48.60286" lon="1.96423">
        <ele>138.8</ele>
        <time>2022-04-07T07:50:13Z</time>
      </trkpt>
      <trkpt lat="48.60284" lon="1.96438">
        <ele>138.6</ele>
        <time>2022-04-07T07:50:21Z</time>
      </trkpt>
      <trkpt lat="48.60283" lon="1.96452">
        <ele>138.6</ele>
        <time>2022-04-07T07:50:28Z</time>
      </trkpt>
      <trkpt lat="48.60287" lon="1.96466">
        <ele>139</ele>
        <time>2022-04-07T07:50:37Z</time>
      </trkpt>
      <trkpt lat="48.60292" lon="1.96478">
        <ele>139.4</ele>
        <time>2022-04-07T07:50:43Z</time>
      </trkpt>
      <trkpt lat="48.60295" lon="1.96491">
        <ele>139.6</ele>
        <time>2022-04-07T07:50:51Z</time>
      </trkpt>
      <trkpt lat="48.60298" lon="1.96506">
        <ele>139.8</ele>
        <time>2022-04-07T07:50:58Z</time>
      </trkpt>
      <trkpt lat="48.60301" lon="1.96521">
        <ele>139.7</ele>
        <time>2022-04-07T07:51:05Z</time>
      </trkpt>
      <trkpt lat="48.60303" lon="1.96535">
        <ele>139.6</ele>
        <time>2022-04-07T07:51:11Z</time>
      </trkpt>
      <trkpt lat="48.60303" lon="1.9655">
        <ele>139.6</ele>
        <time>2022-04-07T07:51:18Z</time>
      </trkpt>
      <trkpt lat="48.60304" lon="1.96564">
        <ele>139.5</ele>
        <time>2022-04-07T07:51:24Z</time>
      </trkpt>
      <trkpt lat="48.60305" lon="1.96579">
        <ele>139</ele>
        <time>2022-04-07T07:51:30Z</time>
      </trkpt>
      <trkpt lat="48.60303" lon="1.96594">
        <ele>138.6</ele>
        <time>2022-04-07T07:51:37Z</time>
      </trkpt>
      <trkpt lat="48.60302" lon="1.96608">
        <ele>138.6</ele>
        <time>2022-04-07T07:51:43Z</time>
      </trkpt>
      <trkpt lat="48.60303" lon="1.96623">
        <ele>138.1</ele>
        <time>2022-04-07T07:51:49Z</time>
      </trkpt>
      <trkpt lat="48.60303" lon="1.96638">
        <ele>137.7</ele>
        <time>2022-04-07T07:51:56Z</time>
      </trkpt>
      <trkpt lat="48.60309" lon="1.9665">
        <ele>138</ele>
        <time>2022-04-07T07:52:03Z</time>
      </trkpt>
      <trkpt lat="48.60313" lon="1.96664">
        <ele>138.2</ele>
        <time>2022-04-07T07:52:10Z</time>
      </trkpt>
      <trkpt lat="48.60319" lon="1.96675">
        <ele>138.6</ele>
        <time>2022-04-07T07:52:16Z</time>
      </trkpt>
      <trkpt lat="48.60321" lon="1.9669">
        <ele>138.4</ele>
        <time>2022-04-07T07:52:24Z</time>
      </trkpt>
      <trkpt lat="48.60326" lon="1.96703">
        <ele>138.8</ele>
        <time>2022-04-07T07:52:32Z</time>
      </trkpt>
      <trkpt lat="48.60332" lon="1.96713">
        <ele>139.8</ele>
        <time>2022-04-07T07:52:39Z</time>
      </trkpt>
      <trkpt lat="48.6034" lon="1.9672">
        <ele>140.5</ele>
        <time>2022-04-07T07:52:44Z</time>
      </trkpt>
      <trkpt lat="48.6035" lon="1.96719">
        <ele>141.2</ele>
        <time>2022-04-07T07:52:51Z</time>
      </trkpt>
      <trkpt lat="48.6036" lon="1.96722">
        <ele>141.9</ele>
        <time>2022-04-07T07:52:59Z</time>
      </trkpt>
      <trkpt lat="48.60367" lon="1.96732">
        <ele>142.2</ele>
        <time>2022-04-07T07:53:05Z</time>
      </trkpt>
      <trkpt lat="48.60374" lon="1.96743">
        <ele>142.5</ele>
        <time>2022-04-07T07:53:11Z</time>
      </trkpt>
      <trkpt lat="48.60379" lon="1.96755">
        <ele>142.5</ele>
        <time>2022-04-07T07:53:18Z</time>
      </trkpt>
      <trkpt lat="48.60385" lon="1.96767">
        <ele>142.2</ele>
        <time>2022-04-07T07:53:26Z</time>
      </trkpt>
      <trkpt lat="48.60394" lon="1.96774">
        <ele>142.3</ele>
        <time>2022-04-07T07:53:33Z</time>
      </trkpt>
      <trkpt lat="48.60402" lon="1.96782">
        <ele>142.4</ele>
        <time>2022-04-07T07:53:40Z</time>
      </trkpt>
      <trkpt lat="48.60411" lon="1.9679">
        <ele>142.4</ele>
        <time>2022-04-07T07:53:54Z</time>
      </trkpt>
      <trkpt lat="48.60419" lon="1.96798">
        <ele>142.2</ele>
        <time>2022-04-07T07:54:02Z</time>
      </trkpt>
      <trkpt lat="48.60427" lon="1.96806">
        <ele>141.6</ele>
        <time>2022-04-07T07:54:10Z</time>
      </trkpt>
      <trkpt lat="48.60434" lon="1.96814">
        <ele>141.4</ele>
        <time>2022-04-07T07:54:17Z</time>
      </trkpt>
      <trkpt lat="48.60443" lon="1.96822">
        <ele>141.1</ele>
        <time>2022-04-07T07:54:24Z</time>
      </trkpt>
      <trkpt lat="48.60451" lon="1.9683">
        <ele>140.3</ele>
        <time>2022-04-07T07:54:32Z</time>
      </trkpt>
      <trkpt lat="48.60459" lon="1.96836">
        <ele>139.4</ele>
        <time>2022-04-07T07:54:39Z</time>
      </trkpt>
      <trkpt lat="48.60467" lon="1.96844">
        <ele>138.5</ele>
        <time>2022-04-07T07:54:45Z</time>
      </trkpt>
      <trkpt lat="48.60473" lon="1.96853">
        <ele>137.8</ele>
        <time>2022-04-07T07:54:51Z</time>
      </trkpt>
      <trkpt lat="48.60482" lon="1.96861">
        <ele>136.7</ele>
        <time>2022-04-07T07:54:58Z</time>
      </trkpt>
      <trkpt lat="48.6049" lon="1.96867">
        <ele>135.4</ele>
        <time>2022-04-07T07:55:04Z</time>
      </trkpt>
      <trkpt lat="48.60498" lon="1.96876">
        <ele>134.3</ele>
        <time>2022-04-07T07:55:10Z</time>
      </trkpt>
      <trkpt lat="48.60507" lon="1.96884">
        <ele>132.8</ele>
        <time>2022-04-07T07:55:16Z</time>
      </trkpt>
      <trkpt lat="48.60514" lon="1.96895">
        <ele>131.4</ele>
        <time>2022-04-07T07:55:23Z</time>
      </trkpt>
      <trkpt lat="48.60521" lon="1.96905">
        <ele>130.2</ele>
        <time>2022-04-07T07:55:30Z</time>
      </trkpt>
      <trkpt lat="48.6053" lon="1.96911">
        <ele>128.7</ele>
        <time>2022-04-07T07:55:35Z</time>
      </trkpt>
      <trkpt lat="48.60539" lon="1.96917">
        <ele>127.4</ele>
        <time>2022-04-07T07:55:41Z</time>
      </trkpt>
      <trkpt lat="48.60548" lon="1.96924">
        <ele>126.1</ele>
        <time>2022-04-07T07:55:47Z</time>
      </trkpt>
      <trkpt lat="48.60555" lon="1.96933">
        <ele>125</ele>
        <time>2022-04-07T07:55:53Z</time>
      </trkpt>
      <trkpt lat="48.60564" lon="1.9694">
        <ele>123.8</ele>
        <time>2022-04-07T07:56:00Z</time>
      </trkpt>
      <trkpt lat="48.60573" lon="1.96947">
        <ele>122.4</ele>
        <time>2022-04-07T07:56:07Z</time>
      </trkpt>
      <trkpt lat="48.60581" lon="1.96955">
        <ele>121</ele>
        <time>2022-04-07T07:56:13Z</time>
      </trkpt>
      <trkpt lat="48.60587" lon="1.96966">
        <ele>120</ele>
        <time>2022-04-07T07:56:21Z</time>
      </trkpt>
      <trkpt lat="48.60595" lon="1.96975">
        <ele>119</ele>
        <time>2022-04-07T07:56:27Z</time>
      </trkpt>
      <trkpt lat="48.60604" lon="1.9698">
        <ele>118.2</ele>
        <time>2022-04-07T07:56:32Z</time>
      </trkpt>
      <trkpt lat="48.60612" lon="1.96989">
        <ele>117.3</ele>
        <time>2022-04-07T07:56:38Z</time>
      </trkpt>
      <trkpt lat="48.6062" lon="1.96996">
        <ele>116.8</ele>
        <time>2022-04-07T07:56:44Z</time>
      </trkpt>
      <trkpt lat="48.60628" lon="1.97004">
        <ele>116.3</ele>
        <time>2022-04-07T07:56:49Z</time>
      </trkpt>
      <trkpt lat="48.60635" lon="1.97016">
        <ele>115.7</ele>
        <time>2022-04-07T07:56:56Z</time>
      </trkpt>
      <trkpt lat="48.60643" lon="1.97025">
        <ele>114.9</ele>
        <time>2022-04-07T07:57:02Z</time>
      </trkpt>
      <trkpt lat="48.6065" lon="1.97033">
        <ele>114.5</ele>
        <time>2022-04-07T07:57:09Z</time>
      </trkpt>
      <trkpt lat="48.60659" lon="1.97039">
        <ele>114</ele>
        <time>2022-04-07T07:57:15Z</time>
      </trkpt>
      <trkpt lat="48.60664" lon="1.97051">
        <ele>113.3</ele>
        <time>2022-04-07T07:57:25Z</time>
      </trkpt>
      <trkpt lat="48.60673" lon="1.97059">
        <ele>112.8</ele>
        <time>2022-04-07T07:57:33Z</time>
      </trkpt>
      <trkpt lat="48.60679" lon="1.97069">
        <ele>112.3</ele>
        <time>2022-04-07T07:57:40Z</time>
      </trkpt>
      <trkpt lat="48.60687" lon="1.97079">
        <ele>111.7</ele>
        <time>2022-04-07T07:57:48Z</time>
      </trkpt>
      <trkpt lat="48.60694" lon="1.97087">
        <ele>110.9</ele>
        <time>2022-04-07T07:57:54Z</time>
      </trkpt>
      <trkpt lat="48.60702" lon="1.97094">
        <ele>110.3</ele>
        <time>2022-04-07T07:58:00Z</time>
      </trkpt>
      <trkpt lat="48.60708" lon="1.97105">
        <ele>109.7</ele>
        <time>2022-04-07T07:58:06Z</time>
      </trkpt>
      <trkpt lat="48.60709" lon="1.9712">
        <ele>109.5</ele>
        <time>2022-04-07T07:58:13Z</time>
      </trkpt>
      <trkpt lat="48.60707" lon="1.97134">
        <ele>109.5</ele>
        <time>2022-04-07T07:58:20Z</time>
      </trkpt>
      <trkpt lat="48.60708" lon="1.9715">
        <ele>109.1</ele>
        <time>2022-04-07T07:58:27Z</time>
      </trkpt>
      <trkpt lat="48.60712" lon="1.97164">
        <ele>108.5</ele>
        <time>2022-04-07T07:58:34Z</time>
      </trkpt>
      <trkpt lat="48.6071" lon="1.97179">
        <ele>108.5</ele>
        <time>2022-04-07T07:58:41Z</time>
      </trkpt>
      <trkpt lat="48.60708" lon="1.97193">
        <ele>108.5</ele>
        <time>2022-04-07T07:58:47Z</time>
      </trkpt>
      <trkpt lat="48.60703" lon="1.97205">
        <ele>108.7</ele>
        <time>2022-04-07T07:58:52Z</time>
      </trkpt>
      <trkpt lat="48.607" lon="1.97218">
        <ele>108.8</ele>
        <time>2022-04-07T07:58:59Z</time>
      </trkpt>
      <trkpt lat="48.60699" lon="1.97234">
        <ele>108.8</ele>
        <time>2022-04-07T07:59:05Z</time>
      </trkpt>
      <trkpt lat="48.607" lon="1.97249">
        <ele>108.8</ele>
        <time>2022-04-07T07:59:10Z</time>
      </trkpt>
      <trkpt lat="48.60705" lon="1.97263">
        <ele>108.2</ele>
        <time>2022-04-07T07:59:17Z</time>
      </trkpt>
      <trkpt lat="48.60706" lon="1.97276">
        <ele>107.6</ele>
        <time>2022-04-07T07:59:23Z</time>
      </trkpt>
      <trkpt lat="48.60709" lon="1.9729">
        <ele>107.5</ele>
        <time>2022-04-07T07:59:29Z</time>
      </trkpt>
      <trkpt lat="48.60712" lon="1.97305">
        <ele>107.4</ele>
        <time>2022-04-07T07:59:35Z</time>
      </trkpt>
      <trkpt lat="48.60713" lon="1.9732">
        <ele>107.3</ele>
        <time>2022-04-07T07:59:41Z</time>
      </trkpt>
      <trkpt lat="48.60716" lon="1.97336">
        <ele>107.1</ele>
        <time>2022-04-07T07:59:47Z</time>
      </trkpt>
      <trkpt lat="48.60718" lon="1.97351">
        <ele>106.5</ele>
        <time>2022-04-07T07:59:53Z</time>
      </trkpt>
      <trkpt lat="48.60721" lon="1.97364">
        <ele>106</ele>
        <time>2022-04-07T08:00:00Z</time>
      </trkpt>
      <trkpt lat="48.60723" lon="1.97379">
        <ele>106</ele>
        <time>2022-04-07T08:00:07Z</time>
      </trkpt>
      <trkpt lat="48.60726" lon="1.97392">
        <ele>105.9</ele>
        <time>2022-04-07T08:00:13Z</time>
      </trkpt>
      <trkpt lat="48.60734" lon="1.97402">
        <ele>105.6</ele>
        <time>2022-04-07T08:00:21Z</time>
      </trkpt>
      <trkpt lat="48.60739" lon="1.97413">
        <ele>105.4</ele>
        <time>2022-04-07T08:00:30Z</time>
      </trkpt>
      <trkpt lat="48.60745" lon="1.97425">
        <ele>105.2</ele>
        <time>2022-04-07T08:00:39Z</time>
      </trkpt>
      <trkpt lat="48.60753" lon="1.97432">
        <ele>105</ele>
        <time>2022-04-07T08:00:45Z</time>
      </trkpt>
      <trkpt lat="48.60761" lon="1.9744">
        <ele>105</ele>
        <time>2022-04-07T08:00:56Z</time>
      </trkpt>
      <trkpt lat="48.60754" lon="1.9745">
        <ele>105</ele>
        <time>2022-04-07T08:02:51Z</time>
      </trkpt>
      <trkpt lat="48.60745" lon="1.97457">
        <ele>105.2</ele>
        <time>2022-04-07T08:02:58Z</time>
      </trkpt>
      <trkpt lat="48.60736" lon="1.97461">
        <ele>105.5</ele>
        <time>2022-04-07T08:03:05Z</time>
      </trkpt>
      <trkpt lat="48.60728" lon="1.97467">
        <ele>105.8</ele>
        <time>2022-04-07T08:03:12Z</time>
      </trkpt>
      <trkpt lat="48.60718" lon="1.97472">
        <ele>106</ele>
        <time>2022-04-07T08:03:20Z</time>
      </trkpt>
      <trkpt lat="48.60708" lon="1.97475">
        <ele>106</ele>
        <time>2022-04-07T08:03:27Z</time>
      </trkpt>
      <trkpt lat="48.60698" lon="1.97474">
        <ele>106</ele>
        <time>2022-04-07T08:03:34Z</time>
      </trkpt>
      <trkpt lat="48.60689" lon="1.97471">
        <ele>106.2</ele>
        <time>2022-04-07T08:03:41Z</time>
      </trkpt>
      <trkpt lat="48.6068" lon="1.97469">
        <ele>106.5</ele>
        <time>2022-04-07T08:03:47Z</time>
      </trkpt>
      <trkpt lat="48.6067" lon="1.97463">
        <ele>106.9</ele>
        <time>2022-04-07T08:03:55Z</time>
      </trkpt>
      <trkpt lat="48.60663" lon="1.97455">
        <ele>107.3</ele>
        <time>2022-04-07T08:04:02Z</time>
      </trkpt>
      <trkpt lat="48.60654" lon="1.97448">
        <ele>107.9</ele>
        <time>2022-04-07T08:04:10Z</time>
      </trkpt>
      <trkpt lat="48.60646" lon="1.97442">
        <ele>108.5</ele>
        <time>2022-04-07T08:04:16Z</time>
      </trkpt>
      <trkpt lat="48.60637" lon="1.97436">
        <ele>109.1</ele>
        <time>2022-04-07T08:04:22Z</time>
      </trkpt>
      <trkpt lat="48.60629" lon="1.97425">
        <ele>109.3</ele>
        <time>2022-04-07T08:04:28Z</time>
      </trkpt>
      <trkpt lat="48.60624" lon="1.97414">
        <ele>109.5</ele>
        <time>2022-04-07T08:04:33Z</time>
      </trkpt>
      <trkpt lat="48.60618" lon="1.97401">
        <ele>109.7</ele>
        <time>2022-04-07T08:04:40Z</time>
      </trkpt>
      <trkpt lat="48.60613" lon="1.97388">
        <ele>110</ele>
        <time>2022-04-07T08:04:47Z</time>
      </trkpt>
      <trkpt lat="48.60608" lon="1.97374">
        <ele>110.6</ele>
        <time>2022-04-07T08:04:54Z</time>
      </trkpt>
      <trkpt lat="48.60599" lon="1.9737">
        <ele>110.8</ele>
        <time>2022-04-07T08:05:00Z</time>
      </trkpt>
      <trkpt lat="48.60592" lon="1.97361">
        <ele>111</ele>
        <time>2022-04-07T08:05:06Z</time>
      </trkpt>
      <trkpt lat="48.60585" lon="1.97352">
        <ele>111.3</ele>
        <time>2022-04-07T08:05:12Z</time>
      </trkpt>
      <trkpt lat="48.60578" lon="1.97341">
        <ele>111.8</ele>
        <time>2022-04-07T08:05:19Z</time>
      </trkpt>
      <trkpt lat="48.60571" lon="1.97329">
        <ele>112</ele>
        <time>2022-04-07T08:05:27Z</time>
      </trkpt>
      <trkpt lat="48.60563" lon="1.97322">
        <ele>112</ele>
        <time>2022-04-07T08:05:34Z</time>
      </trkpt>
      <trkpt lat="48.60554" lon="1.97318">
        <ele>112</ele>
        <time>2022-04-07T08:05:41Z</time>
      </trkpt>
      <trkpt lat="48.60545" lon="1.97314">
        <ele>112.4</ele>
        <time>2022-04-07T08:05:48Z</time>
      </trkpt>
      <trkpt lat="48.60537" lon="1.97307">
        <ele>112.7</ele>
        <time>2022-04-07T08:05:54Z</time>
      </trkpt>
      <trkpt lat="48.60527" lon="1.97302">
        <ele>113</ele>
        <time>2022-04-07T08:06:01Z</time>
      </trkpt>
      <trkpt lat="48.60518" lon="1.97296">
        <ele>113.1</ele>
        <time>2022-04-07T08:06:08Z</time>
      </trkpt>
      <trkpt lat="48.6051" lon="1.97288">
        <ele>113.4</ele>
        <time>2022-04-07T08:06:14Z</time>
      </trkpt>
      <trkpt lat="48.605" lon="1.97285">
        <ele>113.7</ele>
        <time>2022-04-07T08:06:21Z</time>
      </trkpt>
      <trkpt lat="48.6049" lon="1.97285">
        <ele>113.8</ele>
        <time>2022-04-07T08:06:27Z</time>
      </trkpt>
      <trkpt lat="48.6048" lon="1.9728">
        <ele>114</ele>
        <time>2022-04-07T08:06:33Z</time>
      </trkpt>
      <trkpt lat="48.60471" lon="1.97277">
        <ele>114.1</ele>
        <time>2022-04-07T08:06:39Z</time>
      </trkpt>
      <trkpt lat="48.60461" lon="1.97272">
        <ele>114.6</ele>
        <time>2022-04-07T08:06:46Z</time>
      </trkpt>
      <trkpt lat="48.60452" lon="1.97266">
        <ele>115.1</ele>
        <time>2022-04-07T08:06:52Z</time>
      </trkpt>
      <trkpt lat="48.60444" lon="1.97261">
        <ele>115.6</ele>
        <time>2022-04-07T08:06:58Z</time>
      </trkpt>
      <trkpt lat="48.60436" lon="1.97252">
        <ele>115.9</ele>
        <time>2022-04-07T08:07:05Z</time>
      </trkpt>
      <trkpt lat="48.60428" lon="1.97243">
        <ele>116.3</ele>
        <time>2022-04-07T08:07:12Z</time>
      </trkpt>
      <trkpt lat="48.60418" lon="1.97237">
        <ele>116.5</ele>
        <time>2022-04-07T08:07:18Z</time>
      </trkpt>
      <trkpt lat="48.60411" lon="1.97228">
        <ele>116.8</ele>
        <time>2022-04-07T08:07:24Z</time>
      </trkpt>
      <trkpt lat="48.60405" lon="1.97218">
        <ele>117.2</ele>
        <time>2022-04-07T08:07:30Z</time>
      </trkpt>
      <trkpt lat="48.60398" lon="1.97207">
        <ele>117.7</ele>
        <time>2022-04-07T08:07:37Z</time>
      </trkpt>
      <trkpt lat="48.60391" lon="1.97194">
        <ele>118.1</ele>
        <time>2022-04-07T08:07:44Z</time>
      </trkpt>
      <trkpt lat="48.60385" lon="1.97183">
        <ele>118.7</ele>
        <time>2022-04-07T08:07:51Z</time>
      </trkpt>
      <trkpt lat="48.60379" lon="1.97172">
        <ele>119.1</ele>
        <time>2022-04-07T08:07:58Z</time>
      </trkpt>
      <trkpt lat="48.60374" lon="1.97161">
        <ele>119.3</ele>
        <time>2022-04-07T08:08:04Z</time>
      </trkpt>
      <trkpt lat="48.60368" lon="1.9715">
        <ele>119.4</ele>
        <time>2022-04-07T08:08:11Z</time>
      </trkpt>
      <trkpt lat="48.6036" lon="1.97143">
        <ele>118.8</ele>
        <time>2022-04-07T08:08:18Z</time>
      </trkpt>
      <trkpt lat="48.60351" lon="1.97137">
        <ele>119.1</ele>
        <time>2022-04-07T08:08:25Z</time>
      </trkpt>
      <trkpt lat="48.60344" lon="1.97128">
        <ele>119.3</ele>
        <time>2022-04-07T08:08:31Z</time>
      </trkpt>
      <trkpt lat="48.60338" lon="1.97116">
        <ele>119.2</ele>
        <time>2022-04-07T08:08:38Z</time>
      </trkpt>
      <trkpt lat="48.60329" lon="1.97107">
        <ele>119.3</ele>
        <time>2022-04-07T08:08:45Z</time>
      </trkpt>
      <trkpt lat="48.60321" lon="1.97098">
        <ele>119.7</ele>
        <time>2022-04-07T08:08:53Z</time>
      </trkpt>
      <trkpt lat="48.60315" lon="1.97086">
        <ele>120</ele>
        <time>2022-04-07T08:09:00Z</time>
      </trkpt>
      <trkpt lat="48.60309" lon="1.97074">
        <ele>120</ele>
        <time>2022-04-07T08:09:06Z</time>
      </trkpt>
      <trkpt lat="48.60305" lon="1.9706">
        <ele>120</ele>
        <time>2022-04-07T08:09:14Z</time>
      </trkpt>
      <trkpt lat="48.60304" lon="1.97046">
        <ele>120.1</ele>
        <time>2022-04-07T08:09:21Z</time>
      </trkpt>
      <trkpt lat="48.60297" lon="1.97035">
        <ele>120.4</ele>
        <time>2022-04-07T08:09:32Z</time>
      </trkpt>
      <trkpt lat="48.60288" lon="1.97039">
        <ele>120.9</ele>
        <time>2022-04-07T08:09:43Z</time>
      </trkpt>
      <trkpt lat="48.60281" lon="1.97049">
        <ele>121.5</ele>
        <time>2022-04-07T08:09:51Z</time>
      </trkpt>
      <trkpt lat="48.60275" lon="1.97061">
        <ele>122.2</ele>
        <time>2022-04-07T08:09:59Z</time>
      </trkpt>
      <trkpt lat="48.6027" lon="1.97074">
        <ele>122.6</ele>
        <time>2022-04-07T08:10:08Z</time>
      </trkpt>
      <trkpt lat="48.60266" lon="1.97086">
        <ele>123</ele>
        <time>2022-04-07T08:10:15Z</time>
      </trkpt>
      <trkpt lat="48.60265" lon="1.971">
        <ele>123.5</ele>
        <time>2022-04-07T08:10:25Z</time>
      </trkpt>
      <trkpt lat="48.60274" lon="1.97107">
        <ele>123.1</ele>
        <time>2022-04-07T08:10:32Z</time>
      </trkpt>
      <trkpt lat="48.60279" lon="1.97119">
        <ele>122.9</ele>
        <time>2022-04-07T08:10:39Z</time>
      </trkpt>
      <trkpt lat="48.60283" lon="1.97133">
        <ele>122.6</ele>
        <time>2022-04-07T08:10:46Z</time>
      </trkpt>
      <trkpt lat="48.60283" lon="1.97147">
        <ele>122.6</ele>
        <time>2022-04-07T08:10:53Z</time>
      </trkpt>
      <trkpt lat="48.60287" lon="1.97161">
        <ele>122.4</ele>
        <time>2022-04-07T08:11:00Z</time>
      </trkpt>
      <trkpt lat="48.60294" lon="1.97171">
        <ele>121.8</ele>
        <time>2022-04-07T08:11:06Z</time>
      </trkpt>
      <trkpt lat="48.60301" lon="1.97181">
        <ele>121.3</ele>
        <time>2022-04-07T08:11:13Z</time>
      </trkpt>
      <trkpt lat="48.60309" lon="1.97188">
        <ele>120.8</ele>
        <time>2022-04-07T08:11:18Z</time>
      </trkpt>
      <trkpt lat="48.60317" lon="1.97195">
        <ele>120.1</ele>
        <time>2022-04-07T08:11:26Z</time>
      </trkpt>
      <trkpt lat="48.60322" lon="1.97207">
        <ele>119.8</ele>
        <time>2022-04-07T08:11:34Z</time>
      </trkpt>
      <trkpt lat="48.60325" lon="1.97222">
        <ele>119.6</ele>
        <time>2022-04-07T08:11:40Z</time>
      </trkpt>
      <trkpt lat="48.60331" lon="1.97235">
        <ele>119.2</ele>
        <time>2022-04-07T08:11:47Z</time>
      </trkpt>
      <trkpt lat="48.60333" lon="1.97248">
        <ele>119</ele>
        <time>2022-04-07T08:11:53Z</time>
      </trkpt>
      <trkpt lat="48.60335" lon="1.97262">
        <ele>118.9</ele>
        <time>2022-04-07T08:11:59Z</time>
      </trkpt>
      <trkpt lat="48.60343" lon="1.97272">
        <ele>118.3</ele>
        <time>2022-04-07T08:12:06Z</time>
      </trkpt>
      <trkpt lat="48.60351" lon="1.97281">
        <ele>117.7</ele>
        <time>2022-04-07T08:12:15Z</time>
      </trkpt>
      <trkpt lat="48.6036" lon="1.9729">
        <ele>117.1</ele>
        <time>2022-04-07T08:12:23Z</time>
      </trkpt>
      <trkpt lat="48.60368" lon="1.97297">
        <ele>116.6</ele>
        <time>2022-04-07T08:12:29Z</time>
      </trkpt>
      <trkpt lat="48.60376" lon="1.97306">
        <ele>115.9</ele>
        <time>2022-04-07T08:12:34Z</time>
      </trkpt>
      <trkpt lat="48.60384" lon="1.97314">
        <ele>115.4</ele>
        <time>2022-04-07T08:12:39Z</time>
      </trkpt>
      <trkpt lat="48.60391" lon="1.97322">
        <ele>114.9</ele>
        <time>2022-04-07T08:12:44Z</time>
      </trkpt>
      <trkpt lat="48.60399" lon="1.97331">
        <ele>114.7</ele>
        <time>2022-04-07T08:12:49Z</time>
      </trkpt>
      <trkpt lat="48.60407" lon="1.97338">
        <ele>114.4</ele>
        <time>2022-04-07T08:12:55Z</time>
      </trkpt>
      <trkpt lat="48.60415" lon="1.97347">
        <ele>114.1</ele>
        <time>2022-04-07T08:13:02Z</time>
      </trkpt>
      <trkpt lat="48.60424" lon="1.97352">
        <ele>114</ele>
        <time>2022-04-07T08:13:08Z</time>
      </trkpt>
      <trkpt lat="48.60432" lon="1.97361">
        <ele>114</ele>
        <time>2022-04-07T08:13:14Z</time>
      </trkpt>
      <trkpt lat="48.60439" lon="1.97371">
        <ele>114</ele>
        <time>2022-04-07T08:13:20Z</time>
      </trkpt>
      <trkpt lat="48.60447" lon="1.97381">
        <ele>113.9</ele>
        <time>2022-04-07T08:13:27Z</time>
      </trkpt>
      <trkpt lat="48.60454" lon="1.9739">
        <ele>113.7</ele>
        <time>2022-04-07T08:13:33Z</time>
      </trkpt>
      <trkpt lat="48.60462" lon="1.97398">
        <ele>113.4</ele>
        <time>2022-04-07T08:13:39Z</time>
      </trkpt>
      <trkpt lat="48.60466" lon="1.97411">
        <ele>113.2</ele>
        <time>2022-04-07T08:13:45Z</time>
      </trkpt>
      <trkpt lat="48.60473" lon="1.97423">
        <ele>113</ele>
        <time>2022-04-07T08:13:51Z</time>
      </trkpt>
      <trkpt lat="48.60481" lon="1.9743">
        <ele>112.7</ele>
        <time>2022-04-07T08:13:58Z</time>
      </trkpt>
      <trkpt lat="48.6049" lon="1.97435">
        <ele>112.4</ele>
        <time>2022-04-07T08:14:06Z</time>
      </trkpt>
      <trkpt lat="48.60499" lon="1.97442">
        <ele>112</ele>
        <time>2022-04-07T08:14:17Z</time>
      </trkpt>
      <trkpt lat="48.60508" lon="1.9745">
        <ele>111.7</ele>
        <time>2022-04-07T08:14:25Z</time>
      </trkpt>
      <trkpt lat="48.60517" lon="1.97455">
        <ele>111.4</ele>
        <time>2022-04-07T08:14:33Z</time>
      </trkpt>
      <trkpt lat="48.60525" lon="1.97462">
        <ele>111.1</ele>
        <time>2022-04-07T08:14:40Z</time>
      </trkpt>
      <trkpt lat="48.60535" lon="1.97467">
        <ele>110.8</ele>
        <time>2022-04-07T08:14:47Z</time>
      </trkpt>
      <trkpt lat="48.60541" lon="1.97477">
        <ele>110.4</ele>
        <time>2022-04-07T08:14:53Z</time>
      </trkpt>
      <trkpt lat="48.60548" lon="1.97486">
        <ele>110.1</ele>
        <time>2022-04-07T08:15:00Z</time>
      </trkpt>
      <trkpt lat="48.60557" lon="1.97495">
        <ele>110</ele>
        <time>2022-04-07T08:15:07Z</time>
      </trkpt>
      <trkpt lat="48.60565" lon="1.97504">
        <ele>109.9</ele>
        <time>2022-04-07T08:15:13Z</time>
      </trkpt>
      <trkpt lat="48.60573" lon="1.97511">
        <ele>109.6</ele>
        <time>2022-04-07T08:15:19Z</time>
      </trkpt>
      <trkpt lat="48.6058" lon="1.97522">
        <ele>109.2</ele>
        <time>2022-04-07T08:15:26Z</time>
      </trkpt>
      <trkpt lat="48.60587" lon="1.97533">
        <ele>109</ele>
        <time>2022-04-07T08:15:33Z</time>
      </trkpt>
      <trkpt lat="48.60583" lon="1.97546">
        <ele>109</ele>
        <time>2022-04-07T08:15:45Z</time>
      </trkpt>
      <trkpt lat="48.60577" lon="1.97557">
        <ele>109</ele>
        <time>2022-04-07T08:15:54Z</time>
      </trkpt>
      <trkpt lat="48.6058" lon="1.9757">
        <ele>108.5</ele>
        <time>2022-04-07T08:16:01Z</time>
      </trkpt>
      <trkpt lat="48.60583" lon="1.97583">
        <ele>108</ele>
        <time>2022-04-07T08:16:09Z</time>
      </trkpt>
      <trkpt lat="48.60585" lon="1.97597">
        <ele>108</ele>
        <time>2022-04-07T08:16:16Z</time>
      </trkpt>
      <trkpt lat="48.60586" lon="1.97611">
        <ele>107.9</ele>
        <time>2022-04-07T08:16:21Z</time>
      </trkpt>
      <trkpt lat="48.60584" lon="1.97627">
        <ele>107.4</ele>
        <time>2022-04-07T08:16:28Z</time>
      </trkpt>
      <trkpt lat="48.60578" lon="1.97638">
        <ele>107.4</ele>
        <time>2022-04-07T08:16:34Z</time>
      </trkpt>
      <trkpt lat="48.6057" lon="1.97647">
        <ele>108</ele>
        <time>2022-04-07T08:16:41Z</time>
      </trkpt>
      <trkpt lat="48.60561" lon="1.97651">
        <ele>108.6</ele>
        <time>2022-04-07T08:16:48Z</time>
      </trkpt>
      <trkpt lat="48.60552" lon="1.97655">
        <ele>109.1</ele>
        <time>2022-04-07T08:16:54Z</time>
      </trkpt>
      <trkpt lat="48.60548" lon="1.97667">
        <ele>109.3</ele>
        <time>2022-04-07T08:17:03Z</time>
      </trkpt>
      <trkpt lat="48.60546" lon="1.97683">
        <ele>109.5</ele>
        <time>2022-04-07T08:17:11Z</time>
      </trkpt>
      <trkpt lat="48.60543" lon="1.97696">
        <ele>109.9</ele>
        <time>2022-04-07T08:17:18Z</time>
      </trkpt>
      <trkpt lat="48.60539" lon="1.97709">
        <ele>110.2</ele>
        <time>2022-04-07T08:17:59Z</time>
      </trkpt>
      <trkpt lat="48.60533" lon="1.97721">
        <ele>110.6</ele>
        <time>2022-04-07T08:18:08Z</time>
      </trkpt>
      <trkpt lat="48.60543" lon="1.97718">
        <ele>109.9</ele>
        <time>2022-04-07T08:20:23Z</time>
      </trkpt>
      <trkpt lat="48.60551" lon="1.97726">
        <ele>109.3</ele>
        <time>2022-04-07T08:20:30Z</time>
      </trkpt>
      <trkpt lat="48.60558" lon="1.97734">
        <ele>108.8</ele>
        <time>2022-04-07T08:20:38Z</time>
      </trkpt>
      <trkpt lat="48.60566" lon="1.97741">
        <ele>108.2</ele>
        <time>2022-04-07T08:20:45Z</time>
      </trkpt>
      <trkpt lat="48.60574" lon="1.97748">
        <ele>107.7</ele>
        <time>2022-04-07T08:20:53Z</time>
      </trkpt>
      <trkpt lat="48.60582" lon="1.97758">
        <ele>107.3</ele>
        <time>2022-04-07T08:21:01Z</time>
      </trkpt>
      <trkpt lat="48.6059" lon="1.97767">
        <ele>107.2</ele>
        <time>2022-04-07T08:21:08Z</time>
      </trkpt>
      <trkpt lat="48.60597" lon="1.97775">
        <ele>107</ele>
        <time>2022-04-07T08:21:15Z</time>
      </trkpt>
      <trkpt lat="48.60605" lon="1.97782">
        <ele>106.4</ele>
        <time>2022-04-07T08:21:21Z</time>
      </trkpt>
      <trkpt lat="48.60614" lon="1.9779">
        <ele>105.9</ele>
        <time>2022-04-07T08:21:28Z</time>
      </trkpt>
      <trkpt lat="48.60622" lon="1.97798">
        <ele>105.9</ele>
        <time>2022-04-07T08:21:35Z</time>
      </trkpt>
      <trkpt lat="48.6063" lon="1.97808">
        <ele>106</ele>
        <time>2022-04-07T08:21:42Z</time>
      </trkpt>
      <trkpt lat="48.60637" lon="1.97817">
        <ele>106</ele>
        <time>2022-04-07T08:21:49Z</time>
      </trkpt>
      <trkpt lat="48.60645" lon="1.97826">
        <ele>105.8</ele>
        <time>2022-04-07T08:21:55Z</time>
      </trkpt>
      <trkpt lat="48.60653" lon="1.97834">
        <ele>105.5</ele>
        <time>2022-04-07T08:22:01Z</time>
      </trkpt>
      <trkpt lat="48.6066" lon="1.97842">
        <ele>105.5</ele>
        <time>2022-04-07T08:22:08Z</time>
      </trkpt>
      <trkpt lat="48.60668" lon="1.9785">
        <ele>105.6</ele>
        <time>2022-04-07T08:22:16Z</time>
      </trkpt>
      <trkpt lat="48.60674" lon="1.9786">
        <ele>105.7</ele>
        <time>2022-04-07T08:22:23Z</time>
      </trkpt>
      <trkpt lat="48.60684" lon="1.97868">
        <ele>105.4</ele>
        <time>2022-04-07T08:22:29Z</time>
      </trkpt>
      <trkpt lat="48.60693" lon="1.97875">
        <ele>105.1</ele>
        <time>2022-04-07T08:22:35Z</time>
      </trkpt>
      <trkpt lat="48.60701" lon="1.97882">
        <ele>104.9</ele>
        <time>2022-04-07T08:22:43Z</time>
      </trkpt>
      <trkpt lat="48.60708" lon="1.97892">
        <ele>105.1</ele>
        <time>2022-04-07T08:22:52Z</time>
      </trkpt>
      <trkpt lat="48.60717" lon="1.979">
        <ele>105.1</ele>
        <time>2022-04-07T08:22:59Z</time>
      </trkpt>
      <trkpt lat="48.60726" lon="1.97904">
        <ele>104.9</ele>
        <time>2022-04-07T08:23:05Z</time>
      </trkpt>
      <trkpt lat="48.60734" lon="1.9791">
        <ele>104.6</ele>
        <time>2022-04-07T08:23:11Z</time>
      </trkpt>
      <trkpt lat="48.60743" lon="1.97915">
        <ele>104.2</ele>
        <time>2022-04-07T08:23:18Z</time>
      </trkpt>
      <trkpt lat="48.60752" lon="1.97925">
        <ele>104.3</ele>
        <time>2022-04-07T08:23:26Z</time>
      </trkpt>
      <trkpt lat="48.6076" lon="1.97933">
        <ele>104.4</ele>
        <time>2022-04-07T08:23:33Z</time>
      </trkpt>
      <trkpt lat="48.60767" lon="1.97943">
        <ele>104.4</ele>
        <time>2022-04-07T08:23:42Z</time>
      </trkpt>
      <trkpt lat="48.60776" lon="1.97948">
        <ele>104.1</ele>
        <time>2022-04-07T08:23:47Z</time>
      </trkpt>
      <trkpt lat="48.60785" lon="1.97953">
        <ele>103.8</ele>
        <time>2022-04-07T08:23:53Z</time>
      </trkpt>
      <trkpt lat="48.60794" lon="1.97956">
        <ele>103.4</ele>
        <time>2022-04-07T08:24:00Z</time>
      </trkpt>
      <trkpt lat="48.60802" lon="1.97964">
        <ele>103.1</ele>
        <time>2022-04-07T08:24:07Z</time>
      </trkpt>
      <trkpt lat="48.60804" lon="1.97979">
        <ele>103.1</ele>
        <time>2022-04-07T08:24:19Z</time>
      </trkpt>
      <trkpt lat="48.60803" lon="1.97993">
        <ele>103.1</ele>
        <time>2022-04-07T08:24:27Z</time>
      </trkpt>
      <trkpt lat="48.60801" lon="1.98007">
        <ele>103.2</ele>
        <time>2022-04-07T08:24:35Z</time>
      </trkpt>
      <trkpt lat="48.60798" lon="1.98021">
        <ele>103.3</ele>
        <time>2022-04-07T08:24:41Z</time>
      </trkpt>
      <trkpt lat="48.60796" lon="1.98035">
        <ele>103.3</ele>
        <time>2022-04-07T08:24:49Z</time>
      </trkpt>
      <trkpt lat="48.60795" lon="1.98049">
        <ele>103.4</ele>
        <time>2022-04-07T08:24:55Z</time>
      </trkpt>
      <trkpt lat="48.6079" lon="1.98062">
        <ele>103.3</ele>
        <time>2022-04-07T08:25:00Z</time>
      </trkpt>
      <trkpt lat="48.60787" lon="1.98076">
        <ele>103</ele>
        <time>2022-04-07T08:25:07Z</time>
      </trkpt>
      <trkpt lat="48.60784" lon="1.9809">
        <ele>102.8</ele>
        <time>2022-04-07T08:25:14Z</time>
      </trkpt>
      <trkpt lat="48.60782" lon="1.98105">
        <ele>102.8</ele>
        <time>2022-04-07T08:25:21Z</time>
      </trkpt>
      <trkpt lat="48.6078" lon="1.9812">
        <ele>102.6</ele>
        <time>2022-04-07T08:25:27Z</time>
      </trkpt>
      <trkpt lat="48.60776" lon="1.98134">
        <ele>102.3</ele>
        <time>2022-04-07T08:25:34Z</time>
      </trkpt>
      <trkpt lat="48.60775" lon="1.98148">
        <ele>102.2</ele>
        <time>2022-04-07T08:25:40Z</time>
      </trkpt>
      <trkpt lat="48.60772" lon="1.98162">
        <ele>102.2</ele>
        <time>2022-04-07T08:25:46Z</time>
      </trkpt>
      <trkpt lat="48.60769" lon="1.98176">
        <ele>102.1</ele>
        <time>2022-04-07T08:25:52Z</time>
      </trkpt>
      <trkpt lat="48.60764" lon="1.9819">
        <ele>102.1</ele>
        <time>2022-04-07T08:25:59Z</time>
      </trkpt>
      <trkpt lat="48.60755" lon="1.98197">
        <ele>102.5</ele>
        <time>2022-04-07T08:26:09Z</time>
      </trkpt>
      <trkpt lat="48.60749" lon="1.98208">
        <ele>102.6</ele>
        <time>2022-04-07T08:26:14Z</time>
      </trkpt>
      <trkpt lat="48.60744" lon="1.98219">
        <ele>102.6</ele>
        <time>2022-04-07T08:26:19Z</time>
      </trkpt>
      <trkpt lat="48.60739" lon="1.98231">
        <ele>102.6</ele>
        <time>2022-04-07T08:26:25Z</time>
      </trkpt>
      <trkpt lat="48.60736" lon="1.98246">
        <ele>102.6</ele>
        <time>2022-04-07T08:26:32Z</time>
      </trkpt>
      <trkpt lat="48.60729" lon="1.98257">
        <ele>102.5</ele>
        <time>2022-04-07T08:26:38Z</time>
      </trkpt>
      <trkpt lat="48.6072" lon="1.98262">
        <ele>102.7</ele>
        <time>2022-04-07T08:26:47Z</time>
      </trkpt>
      <trkpt lat="48.60711" lon="1.9827">
        <ele>102.7</ele>
        <time>2022-04-07T08:26:54Z</time>
      </trkpt>
      <trkpt lat="48.60703" lon="1.98278">
        <ele>102.7</ele>
        <time>2022-04-07T08:26:59Z</time>
      </trkpt>
      <trkpt lat="48.60694" lon="1.98284">
        <ele>102.8</ele>
        <time>2022-04-07T08:27:03Z</time>
      </trkpt>
      <trkpt lat="48.60685" lon="1.98292">
        <ele>102.5</ele>
        <time>2022-04-07T08:27:09Z</time>
      </trkpt>
      <trkpt lat="48.60677" lon="1.983">
        <ele>102.2</ele>
        <time>2022-04-07T08:27:14Z</time>
      </trkpt>
      <trkpt lat="48.60666" lon="1.98304">
        <ele>102</ele>
        <time>2022-04-07T08:27:20Z</time>
      </trkpt>
      <trkpt lat="48.60657" lon="1.98307">
        <ele>102</ele>
        <time>2022-04-07T08:27:26Z</time>
      </trkpt>
      <trkpt lat="48.60648" lon="1.98314">
        <ele>101.9</ele>
        <time>2022-04-07T08:27:32Z</time>
      </trkpt>
      <trkpt lat="48.6064" lon="1.98319">
        <ele>102</ele>
        <time>2022-04-07T08:27:37Z</time>
      </trkpt>
      <trkpt lat="48.6063" lon="1.98323">
        <ele>102.1</ele>
        <time>2022-04-07T08:27:44Z</time>
      </trkpt>
      <trkpt lat="48.60621" lon="1.98327">
        <ele>102.2</ele>
        <time>2022-04-07T08:27:50Z</time>
      </trkpt>
      <trkpt lat="48.60612" lon="1.98332">
        <ele>102</ele>
        <time>2022-04-07T08:27:57Z</time>
      </trkpt>
      <trkpt lat="48.60603" lon="1.98335">
        <ele>102.3</ele>
        <time>2022-04-07T08:28:04Z</time>
      </trkpt>
      <trkpt lat="48.60595" lon="1.98339">
        <ele>102.6</ele>
        <time>2022-04-07T08:28:09Z</time>
      </trkpt>
      <trkpt lat="48.60586" lon="1.98342">
        <ele>102.9</ele>
        <time>2022-04-07T08:28:15Z</time>
      </trkpt>
      <trkpt lat="48.60577" lon="1.98344">
        <ele>102.9</ele>
        <time>2022-04-07T08:28:21Z</time>
      </trkpt>
      <trkpt lat="48.60568" lon="1.98348">
        <ele>102.7</ele>
        <time>2022-04-07T08:28:28Z</time>
      </trkpt>
      <trkpt lat="48.60558" lon="1.9835">
        <ele>102.5</ele>
        <time>2022-04-07T08:28:37Z</time>
      </trkpt>
      <trkpt lat="48.60549" lon="1.98353">
        <ele>102.2</ele>
        <time>2022-04-07T08:28:44Z</time>
      </trkpt>
      <trkpt lat="48.6054" lon="1.98358">
        <ele>102</ele>
        <time>2022-04-07T08:28:54Z</time>
      </trkpt>
      <trkpt lat="48.6053" lon="1.98361">
        <ele>102</ele>
        <time>2022-04-07T08:29:05Z</time>
      </trkpt>
      <trkpt lat="48.60521" lon="1.98364">
        <ele>101.6</ele>
        <time>2022-04-07T08:29:12Z</time>
      </trkpt>
      <trkpt lat="48.6051" lon="1.98363">
        <ele>101.3</ele>
        <time>2022-04-07T08:29:20Z</time>
      </trkpt>
      <trkpt lat="48.605" lon="1.98365">
        <ele>100.9</ele>
        <time>2022-04-07T08:29:26Z</time>
      </trkpt>
      <trkpt lat="48.60491" lon="1.98366">
        <ele>100.5</ele>
        <time>2022-04-07T08:29:32Z</time>
      </trkpt>
      <trkpt lat="48.60481" lon="1.98367">
        <ele>100.3</ele>
        <time>2022-04-07T08:29:38Z</time>
      </trkpt>
      <trkpt lat="48.60472" lon="1.9837">
        <ele>100</ele>
        <time>2022-04-07T08:29:44Z</time>
      </trkpt>
      <trkpt lat="48.60463" lon="1.98371">
        <ele>100</ele>
        <time>2022-04-07T08:29:51Z</time>
      </trkpt>
      <trkpt lat="48.60454" lon="1.98374">
        <ele>100</ele>
        <time>2022-04-07T08:29:58Z</time>
      </trkpt>
      <trkpt lat="48.60444" lon="1.98377">
        <ele>100</ele>
        <time>2022-04-07T08:30:05Z</time>
      </trkpt>
      <trkpt lat="48.60435" lon="1.98381">
        <ele>100.3</ele>
        <time>2022-04-07T08:30:11Z</time>
      </trkpt>
      <trkpt lat="48.60425" lon="1.98383">
        <ele>100.7</ele>
        <time>2022-04-07T08:30:18Z</time>
      </trkpt>
      <trkpt lat="48.60415" lon="1.98388">
        <ele>101.1</ele>
        <time>2022-04-07T08:30:25Z</time>
      </trkpt>
      <trkpt lat="48.60406" lon="1.98392">
        <ele>101.3</ele>
        <time>2022-04-07T08:30:33Z</time>
      </trkpt>
      <trkpt lat="48.60397" lon="1.98392">
        <ele>101.7</ele>
        <time>2022-04-07T08:30:44Z</time>
      </trkpt>
      <trkpt lat="48.60388" lon="1.98394">
        <ele>102.1</ele>
        <time>2022-04-07T08:30:52Z</time>
      </trkpt>
      <trkpt lat="48.60378" lon="1.98399">
        <ele>102.8</ele>
        <time>2022-04-07T08:30:59Z</time>
      </trkpt>
      <trkpt lat="48.60368" lon="1.98404">
        <ele>103.5</ele>
        <time>2022-04-07T08:31:06Z</time>
      </trkpt>
      <trkpt lat="48.6036" lon="1.98412">
        <ele>104.1</ele>
        <time>2022-04-07T08:31:13Z</time>
      </trkpt>
      <trkpt lat="48.60352" lon="1.98419">
        <ele>104.7</ele>
        <time>2022-04-07T08:31:19Z</time>
      </trkpt>
      <trkpt lat="48.60344" lon="1.98427">
        <ele>105.2</ele>
        <time>2022-04-07T08:31:25Z</time>
      </trkpt>
      <trkpt lat="48.60335" lon="1.98434">
        <ele>105.9</ele>
        <time>2022-04-07T08:31:32Z</time>
      </trkpt>
      <trkpt lat="48.60327" lon="1.98445">
        <ele>106.2</ele>
        <time>2022-04-07T08:31:38Z</time>
      </trkpt>
      <trkpt lat="48.60318" lon="1.98454">
        <ele>106.2</ele>
        <time>2022-04-07T08:31:45Z</time>
      </trkpt>
      <trkpt lat="48.60311" lon="1.98464">
        <ele>106.1</ele>
        <time>2022-04-07T08:31:53Z</time>
      </trkpt>
      <trkpt lat="48.60304" lon="1.98475">
        <ele>105.9</ele>
        <time>2022-04-07T08:31:59Z</time>
      </trkpt>
      <trkpt lat="48.60298" lon="1.98487">
        <ele>105.5</ele>
        <time>2022-04-07T08:32:05Z</time>
      </trkpt>
      <trkpt lat="48.60292" lon="1.98499">
        <ele>105</ele>
        <time>2022-04-07T08:32:11Z</time>
      </trkpt>
      <trkpt lat="48.60285" lon="1.98509">
        <ele>104.7</ele>
        <time>2022-04-07T08:32:17Z</time>
      </trkpt>
      <trkpt lat="48.60278" lon="1.98521">
        <ele>104.3</ele>
        <time>2022-04-07T08:32:23Z</time>
      </trkpt>
      <trkpt lat="48.6027" lon="1.98532">
        <ele>104.2</ele>
        <time>2022-04-07T08:32:29Z</time>
      </trkpt>
      <trkpt lat="48.60263" lon="1.9854">
        <ele>104.3</ele>
        <time>2022-04-07T08:32:37Z</time>
      </trkpt>
      <trkpt lat="48.60254" lon="1.98548">
        <ele>104.2</ele>
        <time>2022-04-07T08:32:44Z</time>
      </trkpt>
      <trkpt lat="48.60246" lon="1.98556">
        <ele>104.2</ele>
        <time>2022-04-07T08:32:54Z</time>
      </trkpt>
      <trkpt lat="48.60238" lon="1.98565">
        <ele>104.4</ele>
        <time>2022-04-07T08:33:00Z</time>
      </trkpt>
      <trkpt lat="48.6023" lon="1.98574">
        <ele>104.7</ele>
        <time>2022-04-07T08:33:06Z</time>
      </trkpt>
      <trkpt lat="48.60222" lon="1.98581">
        <ele>105</ele>
        <time>2022-04-07T08:33:15Z</time>
      </trkpt>
      <trkpt lat="48.60213" lon="1.98588">
        <ele>105.4</ele>
        <time>2022-04-07T08:33:27Z</time>
      </trkpt>
      <trkpt lat="48.60205" lon="1.98597">
        <ele>105.9</ele>
        <time>2022-04-07T08:33:34Z</time>
      </trkpt>
      <trkpt lat="48.60198" lon="1.98606">
        <ele>106.6</ele>
        <time>2022-04-07T08:33:41Z</time>
      </trkpt>
      <trkpt lat="48.60191" lon="1.98616">
        <ele>107.1</ele>
        <time>2022-04-07T08:33:46Z</time>
      </trkpt>
      <trkpt lat="48.60183" lon="1.98622">
        <ele>107.4</ele>
        <time>2022-04-07T08:33:52Z</time>
      </trkpt>
      <trkpt lat="48.60175" lon="1.98629">
        <ele>107.7</ele>
        <time>2022-04-07T08:33:57Z</time>
      </trkpt>
      <trkpt lat="48.60166" lon="1.98636">
        <ele>108</ele>
        <time>2022-04-07T08:34:03Z</time>
      </trkpt>
      <trkpt lat="48.6016" lon="1.98646">
        <ele>108.2</ele>
        <time>2022-04-07T08:34:12Z</time>
      </trkpt>
      <trkpt lat="48.60153" lon="1.98654">
        <ele>108.5</ele>
        <time>2022-04-07T08:34:32Z</time>
      </trkpt>
      <trkpt lat="48.60146" lon="1.98665">
        <ele>108.7</ele>
        <time>2022-04-07T08:34:39Z</time>
      </trkpt>
      <trkpt lat="48.60137" lon="1.98672">
        <ele>108.8</ele>
        <time>2022-04-07T08:34:47Z</time>
      </trkpt>
      <trkpt lat="48.60129" lon="1.98678">
        <ele>108.9</ele>
        <time>2022-04-07T08:34:54Z</time>
      </trkpt>
      <trkpt lat="48.60119" lon="1.98687">
        <ele>109</ele>
        <time>2022-04-07T08:35:00Z</time>
      </trkpt>
      <trkpt lat="48.6011" lon="1.98693">
        <ele>109.1</ele>
        <time>2022-04-07T08:35:05Z</time>
      </trkpt>
      <trkpt lat="48.60102" lon="1.98697">
        <ele>108.9</ele>
        <time>2022-04-07T08:35:11Z</time>
      </trkpt>
      <trkpt lat="48.60093" lon="1.98705">
        <ele>108.6</ele>
        <time>2022-04-07T08:35:19Z</time>
      </trkpt>
      <trkpt lat="48.60085" lon="1.98712">
        <ele>108.4</ele>
        <time>2022-04-07T08:35:24Z</time>
      </trkpt>
      <trkpt lat="48.60076" lon="1.98718">
        <ele>107.9</ele>
        <time>2022-04-07T08:35:30Z</time>
      </trkpt>
      <trkpt lat="48.60069" lon="1.98726">
        <ele>107.4</ele>
        <time>2022-04-07T08:35:36Z</time>
      </trkpt>
      <trkpt lat="48.6006" lon="1.98732">
        <ele>107.1</ele>
        <time>2022-04-07T08:35:41Z</time>
      </trkpt>
      <trkpt lat="48.60051" lon="1.98737">
        <ele>106.9</ele>
        <time>2022-04-07T08:35:46Z</time>
      </trkpt>
      <trkpt lat="48.60041" lon="1.98739">
        <ele>106.7</ele>
        <time>2022-04-07T08:35:53Z</time>
      </trkpt>
      <trkpt lat="48.60031" lon="1.9874">
        <ele>106.4</ele>
        <time>2022-04-07T08:35:59Z</time>
      </trkpt>
      <trkpt lat="48.60022" lon="1.98745">
        <ele>106</ele>
        <time>2022-04-07T08:36:07Z</time>
      </trkpt>
      <trkpt lat="48.60012" lon="1.98747">
        <ele>105.5</ele>
        <time>2022-04-07T08:36:13Z</time>
      </trkpt>
      <trkpt lat="48.60003" lon="1.98749">
        <ele>105.1</ele>
        <time>2022-04-07T08:36:19Z</time>
      </trkpt>
      <trkpt lat="48.59994" lon="1.98752">
        <ele>105.2</ele>
        <time>2022-04-07T08:36:25Z</time>
      </trkpt>
      <trkpt lat="48.59984" lon="1.98755">
        <ele>105.5</ele>
        <time>2022-04-07T08:36:31Z</time>
      </trkpt>
      <trkpt lat="48.59974" lon="1.98757">
        <ele>105.7</ele>
        <time>2022-04-07T08:36:38Z</time>
      </trkpt>
      <trkpt lat="48.59964" lon="1.98757">
        <ele>105.8</ele>
        <time>2022-04-07T08:36:46Z</time>
      </trkpt>
      <trkpt lat="48.59954" lon="1.98759">
        <ele>105.9</ele>
        <time>2022-04-07T08:36:54Z</time>
      </trkpt>
      <trkpt lat="48.59945" lon="1.98762">
        <ele>106</ele>
        <time>2022-04-07T08:37:00Z</time>
      </trkpt>
      <trkpt lat="48.59936" lon="1.98763">
        <ele>106.5</ele>
        <time>2022-04-07T08:37:07Z</time>
      </trkpt>
      <trkpt lat="48.59926" lon="1.98765">
        <ele>107</ele>
        <time>2022-04-07T08:37:14Z</time>
      </trkpt>
      <trkpt lat="48.59916" lon="1.98768">
        <ele>107.4</ele>
        <time>2022-04-07T08:37:20Z</time>
      </trkpt>
      <trkpt lat="48.59907" lon="1.98771">
        <ele>108.3</ele>
        <time>2022-04-07T08:37:27Z</time>
      </trkpt>
      <trkpt lat="48.59897" lon="1.98771">
        <ele>109.3</ele>
        <time>2022-04-07T08:37:34Z</time>
      </trkpt>
      <trkpt lat="48.59887" lon="1.98776">
        <ele>110.2</ele>
        <time>2022-04-07T08:37:40Z</time>
      </trkpt>
      <trkpt lat="48.59877" lon="1.98779">
        <ele>111.3</ele>
        <time>2022-04-07T08:37:47Z</time>
      </trkpt>
      <trkpt lat="48.59868" lon="1.98781">
        <ele>112.1</ele>
        <time>2022-04-07T08:37:52Z</time>
      </trkpt>
      <trkpt lat="48.59858" lon="1.98783">
        <ele>112.8</ele>
        <time>2022-04-07T08:37:58Z</time>
      </trkpt>
      <trkpt lat="48.59849" lon="1.98786">
        <ele>113.1</ele>
        <time>2022-04-07T08:38:05Z</time>
      </trkpt>
      <trkpt lat="48.59839" lon="1.98788">
        <ele>113.6</ele>
        <time>2022-04-07T08:38:12Z</time>
      </trkpt>
      <trkpt lat="48.59829" lon="1.98788">
        <ele>114</ele>
        <time>2022-04-07T08:38:20Z</time>
      </trkpt>
      <trkpt lat="48.59819" lon="1.98787">
        <ele>114.2</ele>
        <time>2022-04-07T08:38:28Z</time>
      </trkpt>
      <trkpt lat="48.59809" lon="1.98788">
        <ele>114.2</ele>
        <time>2022-04-07T08:38:35Z</time>
      </trkpt>
      <trkpt lat="48.598" lon="1.98788">
        <ele>114.5</ele>
        <time>2022-04-07T08:38:42Z</time>
      </trkpt>
      <trkpt lat="48.59791" lon="1.98788">
        <ele>114.8</ele>
        <time>2022-04-07T08:38:49Z</time>
      </trkpt>
      <trkpt lat="48.59781" lon="1.98787">
        <ele>115.2</ele>
        <time>2022-04-07T08:38:57Z</time>
      </trkpt>
      <trkpt lat="48.59771" lon="1.98787">
        <ele>115.4</ele>
        <time>2022-04-07T08:39:05Z</time>
      </trkpt>
      <trkpt lat="48.59761" lon="1.98789">
        <ele>115.4</ele>
        <time>2022-04-07T08:39:11Z</time>
      </trkpt>
      <trkpt lat="48.59752" lon="1.98786">
        <ele>115.7</ele>
        <time>2022-04-07T08:39:19Z</time>
      </trkpt>
      <trkpt lat="48.59743" lon="1.98786">
        <ele>116</ele>
        <time>2022-04-07T08:39:25Z</time>
      </trkpt>
      <trkpt lat="48.59733" lon="1.98787">
        <ele>116.3</ele>
        <time>2022-04-07T08:39:31Z</time>
      </trkpt>
      <trkpt lat="48.59724" lon="1.98785">
        <ele>116.7</ele>
        <time>2022-04-07T08:39:37Z</time>
      </trkpt>
      <trkpt lat="48.59714" lon="1.98784">
        <ele>117.1</ele>
        <time>2022-04-07T08:39:44Z</time>
      </trkpt>
      <trkpt lat="48.59704" lon="1.98785">
        <ele>117.6</ele>
        <time>2022-04-07T08:39:52Z</time>
      </trkpt>
      <trkpt lat="48.59695" lon="1.98784">
        <ele>118</ele>
        <time>2022-04-07T08:39:58Z</time>
      </trkpt>
      <trkpt lat="48.59685" lon="1.98783">
        <ele>118.4</ele>
        <time>2022-04-07T08:40:06Z</time>
      </trkpt>
      <trkpt lat="48.59676" lon="1.98784">
        <ele>118.8</ele>
        <time>2022-04-07T08:40:12Z</time>
      </trkpt>
      <trkpt lat="48.59667" lon="1.98783">
        <ele>119.2</ele>
        <time>2022-04-07T08:40:19Z</time>
      </trkpt>
      <trkpt lat="48.59658" lon="1.98784">
        <ele>119.9</ele>
        <time>2022-04-07T08:40:25Z</time>
      </trkpt>
      <trkpt lat="48.59649" lon="1.98784">
        <ele>120.5</ele>
        <time>2022-04-07T08:40:31Z</time>
      </trkpt>
      <trkpt lat="48.5964" lon="1.98783">
        <ele>121.1</ele>
        <time>2022-04-07T08:40:38Z</time>
      </trkpt>
      <trkpt lat="48.5963" lon="1.98784">
        <ele>121.9</ele>
        <time>2022-04-07T08:40:45Z</time>
      </trkpt>
      <trkpt lat="48.5962" lon="1.98785">
        <ele>122.6</ele>
        <time>2022-04-07T08:40:52Z</time>
      </trkpt>
      <trkpt lat="48.59611" lon="1.98786">
        <ele>123.3</ele>
        <time>2022-04-07T08:40:58Z</time>
      </trkpt>
      <trkpt lat="48.59602" lon="1.9879">
        <ele>123.6</ele>
        <time>2022-04-07T08:41:04Z</time>
      </trkpt>
      <trkpt lat="48.59592" lon="1.98788">
        <ele>123.6</ele>
        <time>2022-04-07T08:41:10Z</time>
      </trkpt>
      <trkpt lat="48.59583" lon="1.98793">
        <ele>124.1</ele>
        <time>2022-04-07T08:41:16Z</time>
      </trkpt>
      <trkpt lat="48.59572" lon="1.98795">
        <ele>124</ele>
        <time>2022-04-07T08:41:23Z</time>
      </trkpt>
      <trkpt lat="48.59563" lon="1.98797">
        <ele>123.9</ele>
        <time>2022-04-07T08:41:30Z</time>
      </trkpt>
      <trkpt lat="48.59554" lon="1.98797">
        <ele>123.6</ele>
        <time>2022-04-07T08:41:37Z</time>
      </trkpt>
      <trkpt lat="48.59548" lon="1.98786">
        <ele>123.2</ele>
        <time>2022-04-07T08:41:46Z</time>
      </trkpt>
      <trkpt lat="48.59555" lon="1.98777">
        <ele>123</ele>
        <time>2022-04-07T08:45:16Z</time>
      </trkpt>
      <trkpt lat="48.59563" lon="1.98771">
        <ele>123</ele>
        <time>2022-04-07T08:45:25Z</time>
      </trkpt>
      <trkpt lat="48.59572" lon="1.98766">
        <ele>123</ele>
        <time>2022-04-07T08:45:34Z</time>
      </trkpt>
      <trkpt lat="48.5958" lon="1.9876">
        <ele>123</ele>
        <time>2022-04-07T08:45:41Z</time>
      </trkpt>
      <trkpt lat="48.59588" lon="1.98751">
        <ele>122.8</ele>
        <time>2022-04-07T08:45:48Z</time>
      </trkpt>
      <trkpt lat="48.59595" lon="1.9874">
        <ele>123</ele>
        <time>2022-04-07T08:45:55Z</time>
      </trkpt>
      <trkpt lat="48.59601" lon="1.98728">
        <ele>123.1</ele>
        <time>2022-04-07T08:46:03Z</time>
      </trkpt>
      <trkpt lat="48.59608" lon="1.98718">
        <ele>123.4</ele>
        <time>2022-04-07T08:46:10Z</time>
      </trkpt>
      <trkpt lat="48.59614" lon="1.98707">
        <ele>124</ele>
        <time>2022-04-07T08:46:16Z</time>
      </trkpt>
      <trkpt lat="48.59621" lon="1.98698">
        <ele>124.4</ele>
        <time>2022-04-07T08:46:23Z</time>
      </trkpt>
      <trkpt lat="48.59628" lon="1.98687">
        <ele>124.8</ele>
        <time>2022-04-07T08:46:29Z</time>
      </trkpt>
      <trkpt lat="48.59637" lon="1.98683">
        <ele>124.8</ele>
        <time>2022-04-07T08:46:37Z</time>
      </trkpt>
      <trkpt lat="48.59646" lon="1.98688">
        <ele>124.5</ele>
        <time>2022-04-07T08:46:43Z</time>
      </trkpt>
      <trkpt lat="48.59656" lon="1.98692">
        <ele>124.2</ele>
        <time>2022-04-07T08:46:50Z</time>
      </trkpt>
      <trkpt lat="48.59666" lon="1.98691">
        <ele>124.4</ele>
        <time>2022-04-07T08:46:57Z</time>
      </trkpt>
      <trkpt lat="48.59675" lon="1.98686">
        <ele>125.2</ele>
        <time>2022-04-07T08:47:06Z</time>
      </trkpt>
      <trkpt lat="48.59681" lon="1.98675">
        <ele>126.6</ele>
        <time>2022-04-07T08:47:15Z</time>
      </trkpt>
      <trkpt lat="48.59685" lon="1.98663">
        <ele>128.3</ele>
        <time>2022-04-07T08:47:22Z</time>
      </trkpt>
      <trkpt lat="48.5969" lon="1.9865">
        <ele>130.7</ele>
        <time>2022-04-07T08:47:29Z</time>
      </trkpt>
      <trkpt lat="48.59694" lon="1.98636">
        <ele>133.4</ele>
        <time>2022-04-07T08:47:37Z</time>
      </trkpt>
      <trkpt lat="48.59698" lon="1.98622">
        <ele>135.6</ele>
        <time>2022-04-07T08:47:46Z</time>
      </trkpt>
      <trkpt lat="48.59697" lon="1.98608">
        <ele>137.7</ele>
        <time>2022-04-07T08:47:55Z</time>
      </trkpt>
      <trkpt lat="48.59694" lon="1.98594">
        <ele>139.4</ele>
        <time>2022-04-07T08:48:04Z</time>
      </trkpt>
      <trkpt lat="48.59691" lon="1.9858">
        <ele>141.1</ele>
        <time>2022-04-07T08:48:16Z</time>
      </trkpt>
      <trkpt lat="48.59691" lon="1.98566">
        <ele>142.6</ele>
        <time>2022-04-07T08:48:27Z</time>
      </trkpt>
      <trkpt lat="48.59697" lon="1.98555">
        <ele>144.1</ele>
        <time>2022-04-07T08:48:44Z</time>
      </trkpt>
      <trkpt lat="48.59705" lon="1.98563">
        <ele>143.7</ele>
        <time>2022-04-07T08:49:07Z</time>
      </trkpt>
      <trkpt lat="48.59714" lon="1.98558">
        <ele>144.5</ele>
        <time>2022-04-07T08:49:20Z</time>
      </trkpt>
      <trkpt lat="48.59722" lon="1.98551">
        <ele>145.2</ele>
        <time>2022-04-07T08:49:29Z</time>
      </trkpt>
      <trkpt lat="48.5973" lon="1.98544">
        <ele>145.3</ele>
        <time>2022-04-07T08:49:38Z</time>
      </trkpt>
      <trkpt lat="48.59739" lon="1.98539">
        <ele>145.2</ele>
        <time>2022-04-07T08:49:48Z</time>
      </trkpt>
      <trkpt lat="48.59749" lon="1.98537">
        <ele>145</ele>
        <time>2022-04-07T08:49:57Z</time>
      </trkpt>
      <trkpt lat="48.59758" lon="1.98533">
        <ele>144.4</ele>
        <time>2022-04-07T08:50:04Z</time>
      </trkpt>
      <trkpt lat="48.59767" lon="1.98524">
        <ele>143.6</ele>
        <time>2022-04-07T08:50:11Z</time>
      </trkpt>
      <trkpt lat="48.59776" lon="1.98517">
        <ele>142.4</ele>
        <time>2022-04-07T08:50:17Z</time>
      </trkpt>
      <trkpt lat="48.59785" lon="1.98514">
        <ele>140.8</ele>
        <time>2022-04-07T08:50:23Z</time>
      </trkpt>
      <trkpt lat="48.59793" lon="1.98513">
        <ele>139.1</ele>
        <time>2022-04-07T08:50:28Z</time>
      </trkpt>
      <trkpt lat="48.59803" lon="1.9851">
        <ele>137.2</ele>
        <time>2022-04-07T08:50:34Z</time>
      </trkpt>
      <trkpt lat="48.59813" lon="1.98507">
        <ele>134.9</ele>
        <time>2022-04-07T08:50:40Z</time>
      </trkpt>
      <trkpt lat="48.59824" lon="1.98508">
        <ele>132.3</ele>
        <time>2022-04-07T08:50:45Z</time>
      </trkpt>
      <trkpt lat="48.59834" lon="1.98508">
        <ele>130.2</ele>
        <time>2022-04-07T08:50:49Z</time>
      </trkpt>
      <trkpt lat="48.59842" lon="1.985">
        <ele>128.4</ele>
        <time>2022-04-07T08:50:57Z</time>
      </trkpt>
      <trkpt lat="48.59849" lon="1.98491">
        <ele>126.6</ele>
        <time>2022-04-07T08:51:23Z</time>
      </trkpt>
      <trkpt lat="48.59856" lon="1.98479">
        <ele>125.1</ele>
        <time>2022-04-07T08:51:29Z</time>
      </trkpt>
      <trkpt lat="48.59855" lon="1.98465">
        <ele>124.5</ele>
        <time>2022-04-07T08:51:35Z</time>
      </trkpt>
      <trkpt lat="48.59851" lon="1.98452">
        <ele>124.4</ele>
        <time>2022-04-07T08:51:41Z</time>
      </trkpt>
      <trkpt lat="48.59845" lon="1.98441">
        <ele>124.6</ele>
        <time>2022-04-07T08:51:47Z</time>
      </trkpt>
      <trkpt lat="48.5984" lon="1.98429">
        <ele>124.8</ele>
        <time>2022-04-07T08:52:01Z</time>
      </trkpt>
      <trkpt lat="48.59841" lon="1.98415">
        <ele>124.2</ele>
        <time>2022-04-07T08:52:07Z</time>
      </trkpt>
      <trkpt lat="48.5984" lon="1.984">
        <ele>124.4</ele>
        <time>2022-04-07T08:52:13Z</time>
      </trkpt>
      <trkpt lat="48.59844" lon="1.98388">
        <ele>124.2</ele>
        <time>2022-04-07T08:52:19Z</time>
      </trkpt>
      <trkpt lat="48.59849" lon="1.98374">
        <ele>124.4</ele>
        <time>2022-04-07T08:52:27Z</time>
      </trkpt>
      <trkpt lat="48.59855" lon="1.98363">
        <ele>124.3</ele>
        <time>2022-04-07T08:52:33Z</time>
      </trkpt>
      <trkpt lat="48.59862" lon="1.98354">
        <ele>124.2</ele>
        <time>2022-04-07T08:52:39Z</time>
      </trkpt>
      <trkpt lat="48.59868" lon="1.98343">
        <ele>124.3</ele>
        <time>2022-04-07T08:52:45Z</time>
      </trkpt>
      <trkpt lat="48.59875" lon="1.98333">
        <ele>124.5</ele>
        <time>2022-04-07T08:52:51Z</time>
      </trkpt>
      <trkpt lat="48.5988" lon="1.9832">
        <ele>124.8</ele>
        <time>2022-04-07T08:52:58Z</time>
      </trkpt>
      <trkpt lat="48.59886" lon="1.98308">
        <ele>125</ele>
        <time>2022-04-07T08:53:05Z</time>
      </trkpt>
      <trkpt lat="48.59885" lon="1.98294">
        <ele>125.9</ele>
        <time>2022-04-07T08:53:11Z</time>
      </trkpt>
      <trkpt lat="48.59878" lon="1.98285">
        <ele>126.6</ele>
        <time>2022-04-07T08:53:17Z</time>
      </trkpt>
      <trkpt lat="48.5987" lon="1.98277">
        <ele>127</ele>
        <time>2022-04-07T08:53:24Z</time>
      </trkpt>
      <trkpt lat="48.59861" lon="1.98272">
        <ele>127.2</ele>
        <time>2022-04-07T08:53:30Z</time>
      </trkpt>
      <trkpt lat="48.59852" lon="1.98268">
        <ele>128.3</ele>
        <time>2022-04-07T08:53:38Z</time>
      </trkpt>
      <trkpt lat="48.59843" lon="1.98262">
        <ele>129.5</ele>
        <time>2022-04-07T08:53:46Z</time>
      </trkpt>
      <trkpt lat="48.59834" lon="1.98259">
        <ele>130.6</ele>
        <time>2022-04-07T08:53:53Z</time>
      </trkpt>
      <trkpt lat="48.59825" lon="1.98255">
        <ele>132</ele>
        <time>2022-04-07T08:54:00Z</time>
      </trkpt>
      <trkpt lat="48.59816" lon="1.98252">
        <ele>133.4</ele>
        <time>2022-04-07T08:54:08Z</time>
      </trkpt>
      <trkpt lat="48.59807" lon="1.98251">
        <ele>134.8</ele>
        <time>2022-04-07T08:54:15Z</time>
      </trkpt>
      <trkpt lat="48.59798" lon="1.98249">
        <ele>135.9</ele>
        <time>2022-04-07T08:54:22Z</time>
      </trkpt>
      <trkpt lat="48.59789" lon="1.98242">
        <ele>137.2</ele>
        <time>2022-04-07T08:54:30Z</time>
      </trkpt>
      <trkpt lat="48.59781" lon="1.98234">
        <ele>138.6</ele>
        <time>2022-04-07T08:54:38Z</time>
      </trkpt>
      <trkpt lat="48.59774" lon="1.98226">
        <ele>140</ele>
        <time>2022-04-07T08:54:45Z</time>
      </trkpt>
      <trkpt lat="48.59765" lon="1.98221">
        <ele>140.9</ele>
        <time>2022-04-07T08:54:53Z</time>
      </trkpt>
      <trkpt lat="48.59757" lon="1.98214">
        <ele>141.8</ele>
        <time>2022-04-07T08:55:01Z</time>
      </trkpt>
      <trkpt lat="48.59749" lon="1.98207">
        <ele>142.6</ele>
        <time>2022-04-07T08:55:08Z</time>
      </trkpt>
      <trkpt lat="48.5974" lon="1.98201">
        <ele>143.4</ele>
        <time>2022-04-07T08:55:15Z</time>
      </trkpt>
      <trkpt lat="48.59732" lon="1.98195">
        <ele>144.3</ele>
        <time>2022-04-07T08:55:24Z</time>
      </trkpt>
      <trkpt lat="48.59723" lon="1.98198">
        <ele>144.7</ele>
        <time>2022-04-07T08:58:42Z</time>
      </trkpt>
      <trkpt lat="48.59714" lon="1.98192">
        <ele>145.8</ele>
        <time>2022-04-07T08:58:50Z</time>
      </trkpt>
      <trkpt lat="48.59705" lon="1.98188">
        <ele>146.6</ele>
        <time>2022-04-07T08:58:59Z</time>
      </trkpt>
      <trkpt lat="48.59696" lon="1.98182">
        <ele>147.3</ele>
        <time>2022-04-07T08:59:24Z</time>
      </trkpt>
      <trkpt lat="48.59689" lon="1.98175">
        <ele>148.1</ele>
        <time>2022-04-07T08:59:29Z</time>
      </trkpt>
      <trkpt lat="48.59681" lon="1.98164">
        <ele>149</ele>
        <time>2022-04-07T08:59:35Z</time>
      </trkpt>
      <trkpt lat="48.59674" lon="1.98156">
        <ele>149.6</ele>
        <time>2022-04-07T08:59:40Z</time>
      </trkpt>
      <trkpt lat="48.59667" lon="1.98146">
        <ele>150</ele>
        <time>2022-04-07T08:59:46Z</time>
      </trkpt>
      <trkpt lat="48.59659" lon="1.98137">
        <ele>150.2</ele>
        <time>2022-04-07T08:59:52Z</time>
      </trkpt>
      <trkpt lat="48.5965" lon="1.9813">
        <ele>150.3</ele>
        <time>2022-04-07T08:59:59Z</time>
      </trkpt>
      <trkpt lat="48.59642" lon="1.98121">
        <ele>150.2</ele>
        <time>2022-04-07T09:00:05Z</time>
      </trkpt>
      <trkpt lat="48.59636" lon="1.98112">
        <ele>150.2</ele>
        <time>2022-04-07T09:00:11Z</time>
      </trkpt>
      <trkpt lat="48.59629" lon="1.98102">
        <ele>150.4</ele>
        <time>2022-04-07T09:00:17Z</time>
      </trkpt>
      <trkpt lat="48.59622" lon="1.98093">
        <ele>150.6</ele>
        <time>2022-04-07T09:00:22Z</time>
      </trkpt>
      <trkpt lat="48.59614" lon="1.98082">
        <ele>150.7</ele>
        <time>2022-04-07T09:00:29Z</time>
      </trkpt>
      <trkpt lat="48.59607" lon="1.98072">
        <ele>151.1</ele>
        <time>2022-04-07T09:00:35Z</time>
      </trkpt>
      <trkpt lat="48.596" lon="1.98062">
        <ele>151.8</ele>
        <time>2022-04-07T09:00:41Z</time>
      </trkpt>
      <trkpt lat="48.59593" lon="1.98052">
        <ele>152.7</ele>
        <time>2022-04-07T09:00:47Z</time>
      </trkpt>
      <trkpt lat="48.59585" lon="1.98044">
        <ele>153.8</ele>
        <time>2022-04-07T09:00:55Z</time>
      </trkpt>
      <trkpt lat="48.59575" lon="1.9804">
        <ele>154.8</ele>
        <time>2022-04-07T09:01:03Z</time>
      </trkpt>
      <trkpt lat="48.59566" lon="1.98035">
        <ele>155.8</ele>
        <time>2022-04-07T09:01:09Z</time>
      </trkpt>
      <trkpt lat="48.59557" lon="1.98031">
        <ele>156.8</ele>
        <time>2022-04-07T09:01:15Z</time>
      </trkpt>
      <trkpt lat="48.59548" lon="1.98025">
        <ele>157</ele>
        <time>2022-04-07T09:01:22Z</time>
      </trkpt>
      <trkpt lat="48.5954" lon="1.98019">
        <ele>157.2</ele>
        <time>2022-04-07T09:01:28Z</time>
      </trkpt>
      <trkpt lat="48.59532" lon="1.98012">
        <ele>157.5</ele>
        <time>2022-04-07T09:01:34Z</time>
      </trkpt>
      <trkpt lat="48.59524" lon="1.98004">
        <ele>157.9</ele>
        <time>2022-04-07T09:01:41Z</time>
      </trkpt>
      <trkpt lat="48.59515" lon="1.97995">
        <ele>158.1</ele>
        <time>2022-04-07T09:01:48Z</time>
      </trkpt>
      <trkpt lat="48.59506" lon="1.9799">
        <ele>158.3</ele>
        <time>2022-04-07T09:01:55Z</time>
      </trkpt>
      <trkpt lat="48.59497" lon="1.97995">
        <ele>158.3</ele>
        <time>2022-04-07T09:02:01Z</time>
      </trkpt>
      <trkpt lat="48.59489" lon="1.98003">
        <ele>158.4</ele>
        <time>2022-04-07T09:02:09Z</time>
      </trkpt>
      <trkpt lat="48.59481" lon="1.98011">
        <ele>158.7</ele>
        <time>2022-04-07T09:02:17Z</time>
      </trkpt>
      <trkpt lat="48.59473" lon="1.9802">
        <ele>159</ele>
        <time>2022-04-07T09:02:22Z</time>
      </trkpt>
      <trkpt lat="48.59466" lon="1.98029">
        <ele>159</ele>
        <time>2022-04-07T09:02:28Z</time>
      </trkpt>
      <trkpt lat="48.59459" lon="1.98039">
        <ele>158.6</ele>
        <time>2022-04-07T09:02:34Z</time>
      </trkpt>
      <trkpt lat="48.59452" lon="1.98052">
        <ele>158.1</ele>
        <time>2022-04-07T09:02:41Z</time>
      </trkpt>
      <trkpt lat="48.59445" lon="1.98061">
        <ele>157.8</ele>
        <time>2022-04-07T09:02:47Z</time>
      </trkpt>
      <trkpt lat="48.59437" lon="1.98069">
        <ele>157.4</ele>
        <time>2022-04-07T09:02:53Z</time>
      </trkpt>
      <trkpt lat="48.5943" lon="1.98079">
        <ele>156.7</ele>
        <time>2022-04-07T09:03:00Z</time>
      </trkpt>
      <trkpt lat="48.59421" lon="1.98084">
        <ele>156.1</ele>
        <time>2022-04-07T09:03:06Z</time>
      </trkpt>
      <trkpt lat="48.59412" lon="1.98085">
        <ele>155.8</ele>
        <time>2022-04-07T09:03:13Z</time>
      </trkpt>
      <trkpt lat="48.59402" lon="1.98078">
        <ele>156.3</ele>
        <time>2022-04-07T09:03:22Z</time>
      </trkpt>
      <trkpt lat="48.59393" lon="1.98071">
        <ele>156.5</ele>
        <time>2022-04-07T09:03:29Z</time>
      </trkpt>
      <trkpt lat="48.59385" lon="1.98065">
        <ele>156.5</ele>
        <time>2022-04-07T09:03:36Z</time>
      </trkpt>
      <trkpt lat="48.59378" lon="1.98057">
        <ele>156.5</ele>
        <time>2022-04-07T09:03:42Z</time>
      </trkpt>
      <trkpt lat="48.59369" lon="1.98048">
        <ele>156.8</ele>
        <time>2022-04-07T09:03:48Z</time>
      </trkpt>
      <trkpt lat="48.59364" lon="1.98036">
        <ele>157.5</ele>
        <time>2022-04-07T09:03:55Z</time>
      </trkpt>
      <trkpt lat="48.59359" lon="1.98022">
        <ele>157.8</ele>
        <time>2022-04-07T09:04:02Z</time>
      </trkpt>
      <trkpt lat="48.59351" lon="1.98014">
        <ele>156.9</ele>
        <time>2022-04-07T09:04:09Z</time>
      </trkpt>
      <trkpt lat="48.59344" lon="1.98006">
        <ele>156.1</ele>
        <time>2022-04-07T09:04:19Z</time>
      </trkpt>
      <trkpt lat="48.59352" lon="1.97998">
        <ele>157</ele>
        <time>2022-04-07T09:05:32Z</time>
      </trkpt>
      <trkpt lat="48.59357" lon="1.97986">
        <ele>157.4</ele>
        <time>2022-04-07T09:05:39Z</time>
      </trkpt>
      <trkpt lat="48.59359" lon="1.97971">
        <ele>157.6</ele>
        <time>2022-04-07T09:05:46Z</time>
      </trkpt>
      <trkpt lat="48.59361" lon="1.97956">
        <ele>157.4</ele>
        <time>2022-04-07T09:05:54Z</time>
      </trkpt>
      <trkpt lat="48.59363" lon="1.97942">
        <ele>157</ele>
        <time>2022-04-07T09:06:01Z</time>
      </trkpt>
      <trkpt lat="48.59362" lon="1.97926">
        <ele>156.4</ele>
        <time>2022-04-07T09:06:07Z</time>
      </trkpt>
      <trkpt lat="48.59361" lon="1.97911">
        <ele>156.1</ele>
        <time>2022-04-07T09:06:13Z</time>
      </trkpt>
      <trkpt lat="48.59358" lon="1.97897">
        <ele>156.1</ele>
        <time>2022-04-07T09:06:19Z</time>
      </trkpt>
      <trkpt lat="48.59357" lon="1.97882">
        <ele>156.2</ele>
        <time>2022-04-07T09:06:26Z</time>
      </trkpt>
      <trkpt lat="48.59355" lon="1.97866">
        <ele>156</ele>
        <time>2022-04-07T09:06:33Z</time>
      </trkpt>
      <trkpt lat="48.59351" lon="1.97853">
        <ele>155.8</ele>
        <time>2022-04-07T09:06:39Z</time>
      </trkpt>
      <trkpt lat="48.59348" lon="1.97839">
        <ele>155.9</ele>
        <time>2022-04-07T09:06:45Z</time>
      </trkpt>
      <trkpt lat="48.59344" lon="1.97825">
        <ele>156</ele>
        <time>2022-04-07T09:06:52Z</time>
      </trkpt>
      <trkpt lat="48.5934" lon="1.97811">
        <ele>156.1</ele>
        <time>2022-04-07T09:06:59Z</time>
      </trkpt>
      <trkpt lat="48.59336" lon="1.97797">
        <ele>156.1</ele>
        <time>2022-04-07T09:07:05Z</time>
      </trkpt>
      <trkpt lat="48.59331" lon="1.97785">
        <ele>155.7</ele>
        <time>2022-04-07T09:07:11Z</time>
      </trkpt>
      <trkpt lat="48.59333" lon="1.97771">
        <ele>155.9</ele>
        <time>2022-04-07T09:07:17Z</time>
      </trkpt>
      <trkpt lat="48.59338" lon="1.9776">
        <ele>156.2</ele>
        <time>2022-04-07T09:07:23Z</time>
      </trkpt>
      <trkpt lat="48.59341" lon="1.97747">
        <ele>156.3</ele>
        <time>2022-04-07T09:07:29Z</time>
      </trkpt>
      <trkpt lat="48.59345" lon="1.97732">
        <ele>156.4</ele>
        <time>2022-04-07T09:07:37Z</time>
      </trkpt>
      <trkpt lat="48.59349" lon="1.97719">
        <ele>156.4</ele>
        <time>2022-04-07T09:07:44Z</time>
      </trkpt>
      <trkpt lat="48.59357" lon="1.9771">
        <ele>156.4</ele>
        <time>2022-04-07T09:07:53Z</time>
      </trkpt>
      <trkpt lat="48.59366" lon="1.97713">
        <ele>156.7</ele>
        <time>2022-04-07T09:08:00Z</time>
      </trkpt>
      <trkpt lat="48.59375" lon="1.97713">
        <ele>156.7</ele>
        <time>2022-04-07T09:08:07Z</time>
      </trkpt>
      <trkpt lat="48.59384" lon="1.97718">
        <ele>156.8</ele>
        <time>2022-04-07T09:08:13Z</time>
      </trkpt>
      <trkpt lat="48.59392" lon="1.97726">
        <ele>157</ele>
        <time>2022-04-07T09:08:20Z</time>
      </trkpt>
      <trkpt lat="48.594" lon="1.97734">
        <ele>157</ele>
        <time>2022-04-07T09:08:28Z</time>
      </trkpt>
      <trkpt lat="48.59409" lon="1.9774">
        <ele>156.9</ele>
        <time>2022-04-07T09:08:34Z</time>
      </trkpt>
      <trkpt lat="48.59418" lon="1.97743">
        <ele>156.7</ele>
        <time>2022-04-07T09:08:40Z</time>
      </trkpt>
      <trkpt lat="48.59427" lon="1.97741">
        <ele>156.2</ele>
        <time>2022-04-07T09:08:45Z</time>
      </trkpt>
      <trkpt lat="48.59433" lon="1.9773">
        <ele>155.3</ele>
        <time>2022-04-07T09:08:51Z</time>
      </trkpt>
      <trkpt lat="48.59431" lon="1.97717">
        <ele>154.5</ele>
        <time>2022-04-07T09:08:58Z</time>
      </trkpt>
      <trkpt lat="48.59428" lon="1.97702">
        <ele>153.7</ele>
        <time>2022-04-07T09:09:05Z</time>
      </trkpt>
      <trkpt lat="48.59424" lon="1.97689">
        <ele>153</ele>
        <time>2022-04-07T09:09:13Z</time>
      </trkpt>
      <trkpt lat="48.59424" lon="1.97673">
        <ele>151.8</ele>
        <time>2022-04-07T09:09:21Z</time>
      </trkpt>
      <trkpt lat="48.59426" lon="1.97659">
        <ele>150.4</ele>
        <time>2022-04-07T09:09:30Z</time>
      </trkpt>
      <trkpt lat="48.59423" lon="1.97645">
        <ele>149.8</ele>
        <time>2022-04-07T09:09:37Z</time>
      </trkpt>
      <trkpt lat="48.59423" lon="1.97631">
        <ele>148.8</ele>
        <time>2022-04-07T09:09:43Z</time>
      </trkpt>
      <trkpt lat="48.59422" lon="1.97616">
        <ele>147.9</ele>
        <time>2022-04-07T09:09:49Z</time>
      </trkpt>
      <trkpt lat="48.59426" lon="1.97602">
        <ele>147</ele>
        <time>2022-04-07T09:09:56Z</time>
      </trkpt>
      <trkpt lat="48.59431" lon="1.9759">
        <ele>146.2</ele>
        <time>2022-04-07T09:10:03Z</time>
      </trkpt>
      <trkpt lat="48.59437" lon="1.97577">
        <ele>145.2</ele>
        <time>2022-04-07T09:10:10Z</time>
      </trkpt>
      <trkpt lat="48.59443" lon="1.97567">
        <ele>144.5</ele>
        <time>2022-04-07T09:10:17Z</time>
      </trkpt>
      <trkpt lat="48.5945" lon="1.97557">
        <ele>143.6</ele>
        <time>2022-04-07T09:10:24Z</time>
      </trkpt>
      <trkpt lat="48.59458" lon="1.97548">
        <ele>142.6</ele>
        <time>2022-04-07T09:10:30Z</time>
      </trkpt>
      <trkpt lat="48.59463" lon="1.97534">
        <ele>141.6</ele>
        <time>2022-04-07T09:10:36Z</time>
      </trkpt>
      <trkpt lat="48.59467" lon="1.97519">
        <ele>141.1</ele>
        <time>2022-04-07T09:10:42Z</time>
      </trkpt>
      <trkpt lat="48.5947" lon="1.97506">
        <ele>141</ele>
        <time>2022-04-07T09:10:49Z</time>
      </trkpt>
      <trkpt lat="48.59468" lon="1.97493">
        <ele>140.7</ele>
        <time>2022-04-07T09:10:55Z</time>
      </trkpt>
      <trkpt lat="48.59464" lon="1.9748">
        <ele>140.1</ele>
        <time>2022-04-07T09:11:01Z</time>
      </trkpt>
      <trkpt lat="48.59466" lon="1.97466">
        <ele>139.3</ele>
        <time>2022-04-07T09:11:07Z</time>
      </trkpt>
      <trkpt lat="48.59468" lon="1.97452">
        <ele>138.4</ele>
        <time>2022-04-07T09:11:16Z</time>
      </trkpt>
      <trkpt lat="48.5947" lon="1.97438">
        <ele>137.9</ele>
        <time>2022-04-07T09:12:23Z</time>
      </trkpt>
      <trkpt lat="48.59474" lon="1.97426">
        <ele>138</ele>
        <time>2022-04-07T09:12:31Z</time>
      </trkpt>
      <trkpt lat="48.59476" lon="1.97412">
        <ele>138</ele>
        <time>2022-04-07T09:12:38Z</time>
      </trkpt>
      <trkpt lat="48.59474" lon="1.97397">
        <ele>138</ele>
        <time>2022-04-07T09:12:45Z</time>
      </trkpt>
      <trkpt lat="48.59471" lon="1.97383">
        <ele>138.3</ele>
        <time>2022-04-07T09:12:51Z</time>
      </trkpt>
      <trkpt lat="48.59468" lon="1.9737">
        <ele>138.9</ele>
        <time>2022-04-07T09:12:58Z</time>
      </trkpt>
      <trkpt lat="48.59467" lon="1.97355">
        <ele>140.1</ele>
        <time>2022-04-07T09:13:05Z</time>
      </trkpt>
      <trkpt lat="48.59462" lon="1.97343">
        <ele>141.1</ele>
        <time>2022-04-07T09:13:13Z</time>
      </trkpt>
      <trkpt lat="48.59459" lon="1.97329">
        <ele>142.6</ele>
        <time>2022-04-07T09:13:20Z</time>
      </trkpt>
      <trkpt lat="48.59458" lon="1.97314">
        <ele>144.7</ele>
        <time>2022-04-07T09:13:28Z</time>
      </trkpt>
      <trkpt lat="48.59456" lon="1.97299">
        <ele>146.8</ele>
        <time>2022-04-07T09:13:37Z</time>
      </trkpt>
      <trkpt lat="48.59452" lon="1.97287">
        <ele>148.5</ele>
        <time>2022-04-07T09:13:48Z</time>
      </trkpt>
      <trkpt lat="48.59445" lon="1.97276">
        <ele>150.3</ele>
        <time>2022-04-07T09:13:58Z</time>
      </trkpt>
      <trkpt lat="48.59439" lon="1.97265">
        <ele>151.5</ele>
        <time>2022-04-07T09:14:05Z</time>
      </trkpt>
      <trkpt lat="48.59434" lon="1.97253">
        <ele>152.9</ele>
        <time>2022-04-07T09:14:12Z</time>
      </trkpt>
      <trkpt lat="48.59427" lon="1.97244">
        <ele>153.3</ele>
        <time>2022-04-07T09:14:18Z</time>
      </trkpt>
      <trkpt lat="48.59423" lon="1.9723">
        <ele>154.4</ele>
        <time>2022-04-07T09:14:25Z</time>
      </trkpt>
      <trkpt lat="48.59426" lon="1.97217">
        <ele>155.6</ele>
        <time>2022-04-07T09:14:32Z</time>
      </trkpt>
      <trkpt lat="48.59429" lon="1.97203">
        <ele>156.5</ele>
        <time>2022-04-07T09:14:39Z</time>
      </trkpt>
      <trkpt lat="48.59436" lon="1.97191">
        <ele>157.4</ele>
        <time>2022-04-07T09:14:46Z</time>
      </trkpt>
      <trkpt lat="48.5944" lon="1.97178">
        <ele>157.8</ele>
        <time>2022-04-07T09:14:52Z</time>
      </trkpt>
      <trkpt lat="48.59439" lon="1.97164">
        <ele>157.9</ele>
        <time>2022-04-07T09:14:58Z</time>
      </trkpt>
      <trkpt lat="48.59435" lon="1.9715">
        <ele>158.3</ele>
        <time>2022-04-07T09:15:05Z</time>
      </trkpt>
      <trkpt lat="48.59432" lon="1.97135">
        <ele>158.5</ele>
        <time>2022-04-07T09:15:12Z</time>
      </trkpt>
      <trkpt lat="48.59434" lon="1.97121">
        <ele>158.2</ele>
        <time>2022-04-07T09:15:18Z</time>
      </trkpt>
      <trkpt lat="48.59435" lon="1.97107">
        <ele>158</ele>
        <time>2022-04-07T09:15:24Z</time>
      </trkpt>
      <trkpt lat="48.59435" lon="1.97092">
        <ele>158</ele>
        <time>2022-04-07T09:15:30Z</time>
      </trkpt>
      <trkpt lat="48.59435" lon="1.97078">
        <ele>157.9</ele>
        <time>2022-04-07T09:15:36Z</time>
      </trkpt>
      <trkpt lat="48.59428" lon="1.97066">
        <ele>157.7</ele>
        <time>2022-04-07T09:15:43Z</time>
      </trkpt>
      <trkpt lat="48.59427" lon="1.9705">
        <ele>157.4</ele>
        <time>2022-04-07T09:15:50Z</time>
      </trkpt>
      <trkpt lat="48.59422" lon="1.97037">
        <ele>157.1</ele>
        <time>2022-04-07T09:15:55Z</time>
      </trkpt>
      <trkpt lat="48.5942" lon="1.97023">
        <ele>156.9</ele>
        <time>2022-04-07T09:16:02Z</time>
      </trkpt>
      <trkpt lat="48.59419" lon="1.97008">
        <ele>156.9</ele>
        <time>2022-04-07T09:16:09Z</time>
      </trkpt>
      <trkpt lat="48.59421" lon="1.96993">
        <ele>156.7</ele>
        <time>2022-04-07T09:16:15Z</time>
      </trkpt>
      <trkpt lat="48.59422" lon="1.96979">
        <ele>156.6</ele>
        <time>2022-04-07T09:16:22Z</time>
      </trkpt>
      <trkpt lat="48.59423" lon="1.96965">
        <ele>156.5</ele>
        <time>2022-04-07T09:16:30Z</time>
      </trkpt>
      <trkpt lat="48.59416" lon="1.96954">
        <ele>157</ele>
        <time>2022-04-07T09:16:38Z</time>
      </trkpt>
      <trkpt lat="48.5941" lon="1.96942">
        <ele>156.5</ele>
        <time>2022-04-07T09:16:46Z</time>
      </trkpt>
      <trkpt lat="48.59407" lon="1.96927">
        <ele>155.9</ele>
        <time>2022-04-07T09:16:53Z</time>
      </trkpt>
      <trkpt lat="48.59405" lon="1.96913">
        <ele>155.6</ele>
        <time>2022-04-07T09:17:00Z</time>
      </trkpt>
      <trkpt lat="48.59402" lon="1.96899">
        <ele>155.5</ele>
        <time>2022-04-07T09:17:07Z</time>
      </trkpt>
      <trkpt lat="48.59404" lon="1.96884">
        <ele>155.5</ele>
        <time>2022-04-07T09:17:15Z</time>
      </trkpt>
      <trkpt lat="48.5941" lon="1.96873">
        <ele>155.6</ele>
        <time>2022-04-07T09:19:17Z</time>
      </trkpt>
      <trkpt lat="48.59416" lon="1.96862">
        <ele>156</ele>
        <time>2022-04-07T09:19:23Z</time>
      </trkpt>
      <trkpt lat="48.59425" lon="1.96855">
        <ele>154.8</ele>
        <time>2022-04-07T09:19:29Z</time>
      </trkpt>
      <trkpt lat="48.59434" lon="1.96853">
        <ele>154</ele>
        <time>2022-04-07T09:19:35Z</time>
      </trkpt>
      <trkpt lat="48.5944" lon="1.96842">
        <ele>153.2</ele>
        <time>2022-04-07T09:19:42Z</time>
      </trkpt>
      <trkpt lat="48.5944" lon="1.96827">
        <ele>152.7</ele>
        <time>2022-04-07T09:19:48Z</time>
      </trkpt>
      <trkpt lat="48.59439" lon="1.96811">
        <ele>151.6</ele>
        <time>2022-04-07T09:19:54Z</time>
      </trkpt>
      <trkpt lat="48.59435" lon="1.96797">
        <ele>150.6</ele>
        <time>2022-04-07T09:20:00Z</time>
      </trkpt>
      <trkpt lat="48.59432" lon="1.96783">
        <ele>149.5</ele>
        <time>2022-04-07T09:20:06Z</time>
      </trkpt>
      <trkpt lat="48.59428" lon="1.9677">
        <ele>148.6</ele>
        <time>2022-04-07T09:20:13Z</time>
      </trkpt>
      <trkpt lat="48.59423" lon="1.9676">
        <ele>147.8</ele>
        <time>2022-04-07T09:20:20Z</time>
      </trkpt>
      <trkpt lat="48.59417" lon="1.96746">
        <ele>146.7</ele>
        <time>2022-04-07T09:20:27Z</time>
      </trkpt>
      <trkpt lat="48.59416" lon="1.96731">
        <ele>145.6</ele>
        <time>2022-04-07T09:20:33Z</time>
      </trkpt>
      <trkpt lat="48.59416" lon="1.96717">
        <ele>144.8</ele>
        <time>2022-04-07T09:20:38Z</time>
      </trkpt>
      <trkpt lat="48.59414" lon="1.96703">
        <ele>144.2</ele>
        <time>2022-04-07T09:20:45Z</time>
      </trkpt>
      <trkpt lat="48.59407" lon="1.96692">
        <ele>143.2</ele>
        <time>2022-04-07T09:20:52Z</time>
      </trkpt>
      <trkpt lat="48.59398" lon="1.96699">
        <ele>142.9</ele>
        <time>2022-04-07T09:21:01Z</time>
      </trkpt>
      <trkpt lat="48.59393" lon="1.96712">
        <ele>143.4</ele>
        <time>2022-04-07T09:21:07Z</time>
      </trkpt>
      <trkpt lat="48.59388" lon="1.96723">
        <ele>143.8</ele>
        <time>2022-04-07T09:21:13Z</time>
      </trkpt>
      <trkpt lat="48.5938" lon="1.96734">
        <ele>143.3</ele>
        <time>2022-04-07T09:21:20Z</time>
      </trkpt>
      <trkpt lat="48.59375" lon="1.96746">
        <ele>143.3</ele>
        <time>2022-04-07T09:21:26Z</time>
      </trkpt>
      <trkpt lat="48.5937" lon="1.96759">
        <ele>143.2</ele>
        <time>2022-04-07T09:21:33Z</time>
      </trkpt>
      <trkpt lat="48.59364" lon="1.96771">
        <ele>143.1</ele>
        <time>2022-04-07T09:21:39Z</time>
      </trkpt>
      <trkpt lat="48.59359" lon="1.96783">
        <ele>143.1</ele>
        <time>2022-04-07T09:21:45Z</time>
      </trkpt>
      <trkpt lat="48.59353" lon="1.96794">
        <ele>142.7</ele>
        <time>2022-04-07T09:21:51Z</time>
      </trkpt>
      <trkpt lat="48.59348" lon="1.96806">
        <ele>142.2</ele>
        <time>2022-04-07T09:21:57Z</time>
      </trkpt>
      <trkpt lat="48.59344" lon="1.96819">
        <ele>141.4</ele>
        <time>2022-04-07T09:22:03Z</time>
      </trkpt>
      <trkpt lat="48.5934" lon="1.96833">
        <ele>140.9</ele>
        <time>2022-04-07T09:22:08Z</time>
      </trkpt>
      <trkpt lat="48.59332" lon="1.96842">
        <ele>139.1</ele>
        <time>2022-04-07T09:22:16Z</time>
      </trkpt>
      <trkpt lat="48.59327" lon="1.96854">
        <ele>138.1</ele>
        <time>2022-04-07T09:22:24Z</time>
      </trkpt>
      <trkpt lat="48.59321" lon="1.96866">
        <ele>137</ele>
        <time>2022-04-07T09:22:32Z</time>
      </trkpt>
      <trkpt lat="48.59316" lon="1.96878">
        <ele>135.6</ele>
        <time>2022-04-07T09:22:39Z</time>
      </trkpt>
      <trkpt lat="48.59311" lon="1.9689">
        <ele>134.3</ele>
        <time>2022-04-07T09:22:45Z</time>
      </trkpt>
      <trkpt lat="48.59306" lon="1.96903">
        <ele>133.2</ele>
        <time>2022-04-07T09:22:51Z</time>
      </trkpt>
      <trkpt lat="48.593" lon="1.96914">
        <ele>132</ele>
        <time>2022-04-07T09:22:58Z</time>
      </trkpt>
      <trkpt lat="48.59294" lon="1.96926">
        <ele>130.6</ele>
        <time>2022-04-07T09:23:05Z</time>
      </trkpt>
      <trkpt lat="48.59289" lon="1.96939">
        <ele>129.1</ele>
        <time>2022-04-07T09:23:12Z</time>
      </trkpt>
      <trkpt lat="48.59283" lon="1.9695">
        <ele>127.7</ele>
        <time>2022-04-07T09:23:18Z</time>
      </trkpt>
      <trkpt lat="48.59276" lon="1.96961">
        <ele>126.2</ele>
        <time>2022-04-07T09:23:25Z</time>
      </trkpt>
      <trkpt lat="48.5927" lon="1.96972">
        <ele>124.9</ele>
        <time>2022-04-07T09:23:31Z</time>
      </trkpt>
      <trkpt lat="48.59265" lon="1.96984">
        <ele>124.4</ele>
        <time>2022-04-07T09:23:37Z</time>
      </trkpt>
      <trkpt lat="48.5926" lon="1.96997">
        <ele>123.8</ele>
        <time>2022-04-07T09:23:44Z</time>
      </trkpt>
      <trkpt lat="48.59254" lon="1.97009">
        <ele>122.9</ele>
        <time>2022-04-07T09:23:51Z</time>
      </trkpt>
      <trkpt lat="48.59249" lon="1.97023">
        <ele>122.7</ele>
        <time>2022-04-07T09:23:58Z</time>
      </trkpt>
      <trkpt lat="48.59243" lon="1.97035">
        <ele>122.5</ele>
        <time>2022-04-07T09:24:05Z</time>
      </trkpt>
      <trkpt lat="48.59237" lon="1.97047">
        <ele>122.2</ele>
        <time>2022-04-07T09:24:11Z</time>
      </trkpt>
      <trkpt lat="48.59232" lon="1.97058">
        <ele>122</ele>
        <time>2022-04-07T09:24:17Z</time>
      </trkpt>
      <trkpt lat="48.59226" lon="1.97069">
        <ele>121.4</ele>
        <time>2022-04-07T09:24:23Z</time>
      </trkpt>
      <trkpt lat="48.59222" lon="1.97083">
        <ele>121</ele>
        <time>2022-04-07T09:24:29Z</time>
      </trkpt>
      <trkpt lat="48.59217" lon="1.97095">
        <ele>120.6</ele>
        <time>2022-04-07T09:24:36Z</time>
      </trkpt>
      <trkpt lat="48.59209" lon="1.97103">
        <ele>120.1</ele>
        <time>2022-04-07T09:24:43Z</time>
      </trkpt>
      <trkpt lat="48.59203" lon="1.97116">
        <ele>119.6</ele>
        <time>2022-04-07T09:24:48Z</time>
      </trkpt>
      <trkpt lat="48.59198" lon="1.97128">
        <ele>119.3</ele>
        <time>2022-04-07T09:24:53Z</time>
      </trkpt>
      <trkpt lat="48.59192" lon="1.9714">
        <ele>118.8</ele>
        <time>2022-04-07T09:24:59Z</time>
      </trkpt>
      <trkpt lat="48.59187" lon="1.97151">
        <ele>118.5</ele>
        <time>2022-04-07T09:25:05Z</time>
      </trkpt>
      <trkpt lat="48.59181" lon="1.97163">
        <ele>118.1</ele>
        <time>2022-04-07T09:25:12Z</time>
      </trkpt>
      <trkpt lat="48.59176" lon="1.97174">
        <ele>117.6</ele>
        <time>2022-04-07T09:25:19Z</time>
      </trkpt>
      <trkpt lat="48.59168" lon="1.97185">
        <ele>117.1</ele>
        <time>2022-04-07T09:25:27Z</time>
      </trkpt>
      <trkpt lat="48.59162" lon="1.97197">
        <ele>116.6</ele>
        <time>2022-04-07T09:25:34Z</time>
      </trkpt>
      <trkpt lat="48.59155" lon="1.97209">
        <ele>116.2</ele>
        <time>2022-04-07T09:25:41Z</time>
      </trkpt>
      <trkpt lat="48.5915" lon="1.97222">
        <ele>115.8</ele>
        <time>2022-04-07T09:25:47Z</time>
      </trkpt>
      <trkpt lat="48.59144" lon="1.97234">
        <ele>115.4</ele>
        <time>2022-04-07T09:25:53Z</time>
      </trkpt>
      <trkpt lat="48.5914" lon="1.97247">
        <ele>115.1</ele>
        <time>2022-04-07T09:25:59Z</time>
      </trkpt>
      <trkpt lat="48.59135" lon="1.9726">
        <ele>114.9</ele>
        <time>2022-04-07T09:26:05Z</time>
      </trkpt>
      <trkpt lat="48.5913" lon="1.97272">
        <ele>114.7</ele>
        <time>2022-04-07T09:26:11Z</time>
      </trkpt>
      <trkpt lat="48.59126" lon="1.97285">
        <ele>114.5</ele>
        <time>2022-04-07T09:26:16Z</time>
      </trkpt>
      <trkpt lat="48.59121" lon="1.97296">
        <ele>114.3</ele>
        <time>2022-04-07T09:26:22Z</time>
      </trkpt>
      <trkpt lat="48.59115" lon="1.97308">
        <ele>114.2</ele>
        <time>2022-04-07T09:26:29Z</time>
      </trkpt>
      <trkpt lat="48.59109" lon="1.97319">
        <ele>114</ele>
        <time>2022-04-07T09:26:45Z</time>
      </trkpt>
      <trkpt lat="48.59102" lon="1.97308">
        <ele>114</ele>
        <time>2022-04-07T09:28:27Z</time>
      </trkpt>
      <trkpt lat="48.59093" lon="1.97306">
        <ele>114</ele>
        <time>2022-04-07T09:28:34Z</time>
      </trkpt>
      <trkpt lat="48.59084" lon="1.97303">
        <ele>113.9</ele>
        <time>2022-04-07T09:28:41Z</time>
      </trkpt>
      <trkpt lat="48.59075" lon="1.97297">
        <ele>113.5</ele>
        <time>2022-04-07T09:28:48Z</time>
      </trkpt>
      <trkpt lat="48.59067" lon="1.97291">
        <ele>113.2</ele>
        <time>2022-04-07T09:28:55Z</time>
      </trkpt>
      <trkpt lat="48.59059" lon="1.97283">
        <ele>113</ele>
        <time>2022-04-07T09:29:03Z</time>
      </trkpt>
      <trkpt lat="48.5905" lon="1.97277">
        <ele>112.8</ele>
        <time>2022-04-07T09:29:10Z</time>
      </trkpt>
      <trkpt lat="48.59041" lon="1.9727">
        <ele>112.5</ele>
        <time>2022-04-07T09:29:17Z</time>
      </trkpt>
      <trkpt lat="48.59032" lon="1.97263">
        <ele>112.1</ele>
        <time>2022-04-07T09:29:24Z</time>
      </trkpt>
      <trkpt lat="48.59025" lon="1.97254">
        <ele>112</ele>
        <time>2022-04-07T09:29:31Z</time>
      </trkpt>
      <trkpt lat="48.59021" lon="1.9724">
        <ele>112</ele>
        <time>2022-04-07T09:29:37Z</time>
      </trkpt>
      <trkpt lat="48.59025" lon="1.97227">
        <ele>112</ele>
        <time>2022-04-07T09:29:44Z</time>
      </trkpt>
      <trkpt lat="48.59028" lon="1.97214">
        <ele>112.3</ele>
        <time>2022-04-07T09:29:51Z</time>
      </trkpt>
      <trkpt lat="48.59029" lon="1.97199">
        <ele>112.9</ele>
        <time>2022-04-07T09:29:59Z</time>
      </trkpt>
      <trkpt lat="48.5903" lon="1.97184">
        <ele>113</ele>
        <time>2022-04-07T09:30:05Z</time>
      </trkpt>
      <trkpt lat="48.59032" lon="1.97169">
        <ele>113</ele>
        <time>2022-04-07T09:30:11Z</time>
      </trkpt>
      <trkpt lat="48.59035" lon="1.97154">
        <ele>113</ele>
        <time>2022-04-07T09:30:17Z</time>
      </trkpt>
      <trkpt lat="48.59038" lon="1.9714">
        <ele>113</ele>
        <time>2022-04-07T09:30:25Z</time>
      </trkpt>
      <trkpt lat="48.59039" lon="1.97124">
        <ele>113</ele>
        <time>2022-04-07T09:30:32Z</time>
      </trkpt>
      <trkpt lat="48.5904" lon="1.9711">
        <ele>113</ele>
        <time>2022-04-07T09:30:37Z</time>
      </trkpt>
      <trkpt lat="48.59043" lon="1.97096">
        <ele>113</ele>
        <time>2022-04-07T09:30:43Z</time>
      </trkpt>
      <trkpt lat="48.59045" lon="1.97082">
        <ele>113</ele>
        <time>2022-04-07T09:30:49Z</time>
      </trkpt>
      <trkpt lat="48.59047" lon="1.97068">
        <ele>113</ele>
        <time>2022-04-07T09:30:56Z</time>
      </trkpt>
      <trkpt lat="48.59051" lon="1.97053">
        <ele>113</ele>
        <time>2022-04-07T09:31:03Z</time>
      </trkpt>
      <trkpt lat="48.59052" lon="1.9704">
        <ele>113</ele>
        <time>2022-04-07T09:31:09Z</time>
      </trkpt>
      <trkpt lat="48.59054" lon="1.97026">
        <ele>113</ele>
        <time>2022-04-07T09:31:15Z</time>
      </trkpt>
      <trkpt lat="48.59058" lon="1.97012">
        <ele>113</ele>
        <time>2022-04-07T09:31:22Z</time>
      </trkpt>
      <trkpt lat="48.59059" lon="1.96999">
        <ele>113</ele>
        <time>2022-04-07T09:31:29Z</time>
      </trkpt>
      <trkpt lat="48.59063" lon="1.96986">
        <ele>113</ele>
        <time>2022-04-07T09:31:35Z</time>
      </trkpt>
      <trkpt lat="48.59065" lon="1.96972">
        <ele>113</ele>
        <time>2022-04-07T09:31:41Z</time>
      </trkpt>
      <trkpt lat="48.59068" lon="1.96958">
        <ele>113</ele>
        <time>2022-04-07T09:31:47Z</time>
      </trkpt>
      <trkpt lat="48.59072" lon="1.96945">
        <ele>113</ele>
        <time>2022-04-07T09:31:53Z</time>
      </trkpt>
      <trkpt lat="48.59077" lon="1.96933">
        <ele>113</ele>
        <time>2022-04-07T09:31:59Z</time>
      </trkpt>
      <trkpt lat="48.59081" lon="1.96919">
        <ele>113</ele>
        <time>2022-04-07T09:32:05Z</time>
      </trkpt>
      <trkpt lat="48.59086" lon="1.96906">
        <ele>113.1</ele>
        <time>2022-04-07T09:32:12Z</time>
      </trkpt>
      <trkpt lat="48.59093" lon="1.96896">
        <ele>113.1</ele>
        <time>2022-04-07T09:32:20Z</time>
      </trkpt>
      <trkpt lat="48.59096" lon="1.96882">
        <ele>113</ele>
        <time>2022-04-07T09:32:28Z</time>
      </trkpt>
      <trkpt lat="48.59101" lon="1.9687">
        <ele>113</ele>
        <time>2022-04-07T09:32:34Z</time>
      </trkpt>
      <trkpt lat="48.59103" lon="1.96856">
        <ele>113</ele>
        <time>2022-04-07T09:32:41Z</time>
      </trkpt>
      <trkpt lat="48.59107" lon="1.96842">
        <ele>113</ele>
        <time>2022-04-07T09:32:48Z</time>
      </trkpt>
      <trkpt lat="48.5911" lon="1.96829">
        <ele>113</ele>
        <time>2022-04-07T09:33:03Z</time>
      </trkpt>
      <trkpt lat="48.59115" lon="1.96816">
        <ele>113.3</ele>
        <time>2022-04-07T09:33:12Z</time>
      </trkpt>
      <trkpt lat="48.59118" lon="1.96801">
        <ele>113.5</ele>
        <time>2022-04-07T09:33:20Z</time>
      </trkpt>
      <trkpt lat="48.59122" lon="1.96789">
        <ele>113.8</ele>
        <time>2022-04-07T09:33:26Z</time>
      </trkpt>
      <trkpt lat="48.59128" lon="1.96777">
        <ele>114.2</ele>
        <time>2022-04-07T09:33:33Z</time>
      </trkpt>
      <trkpt lat="48.59133" lon="1.96764">
        <ele>114.2</ele>
        <time>2022-04-07T09:33:41Z</time>
      </trkpt>
      <trkpt lat="48.59134" lon="1.96749">
        <ele>113.8</ele>
        <time>2022-04-07T09:33:48Z</time>
      </trkpt>
      <trkpt lat="48.59138" lon="1.96734">
        <ele>114</ele>
        <time>2022-04-07T09:33:56Z</time>
      </trkpt>
      <trkpt lat="48.5914" lon="1.9672">
        <ele>114.1</ele>
        <time>2022-04-07T09:34:02Z</time>
      </trkpt>
      <trkpt lat="48.59143" lon="1.96706">
        <ele>114.3</ele>
        <time>2022-04-07T09:34:09Z</time>
      </trkpt>
      <trkpt lat="48.59147" lon="1.96692">
        <ele>114.6</ele>
        <time>2022-04-07T09:34:16Z</time>
      </trkpt>
      <trkpt lat="48.59146" lon="1.96677">
        <ele>114.5</ele>
        <time>2022-04-07T09:34:23Z</time>
      </trkpt>
      <trkpt lat="48.59146" lon="1.96662">
        <ele>114.5</ele>
        <time>2022-04-07T09:34:30Z</time>
      </trkpt>
      <trkpt lat="48.59148" lon="1.96648">
        <ele>114.6</ele>
        <time>2022-04-07T09:34:38Z</time>
      </trkpt>
      <trkpt lat="48.5915" lon="1.96633">
        <ele>114.9</ele>
        <time>2022-04-07T09:34:46Z</time>
      </trkpt>
      <trkpt lat="48.59153" lon="1.9662">
        <ele>115.4</ele>
        <time>2022-04-07T09:34:53Z</time>
      </trkpt>
      <trkpt lat="48.59161" lon="1.96611">
        <ele>115.8</ele>
        <time>2022-04-07T09:35:02Z</time>
      </trkpt>
      <trkpt lat="48.59169" lon="1.96602">
        <ele>116.1</ele>
        <time>2022-04-07T09:35:10Z</time>
      </trkpt>
      <trkpt lat="48.59176" lon="1.96594">
        <ele>116.3</ele>
        <time>2022-04-07T09:35:19Z</time>
      </trkpt>
    </trkseg>
  </trk>
</gpx>